Observation data for Hackberry on 10/18/2019      Previous  Date       Current Mesonet Observations  Soil Data  Daily Summary Page  Observations in Plain Language
KHA3 180500Z 17014KT 17/M02 A2984 RMK A01 T01671015  RH  029%=      5-min Rain = 0
KHA3 180501Z 17015KT 17/M02 A2984 RMK A01 T01671015  RH  029%=      5-min Rain = 0
KHA3 180502Z 17015KT 17/M02 A2984 RMK A01 T01671015  RH  029%=      5-min Rain = 0
KHA3 180503Z 17014KT 17/M02 A2984 RMK A01 T01671015  RH  029%=      5-min Rain = 0
KHA3 180504Z 17013KT 17/M02 A2984 RMK A01 T01671015  RH  029%=      5-min Rain = 0
KHA3 180505Z 17014KT 17/M02 A2984 RMK A01 T01661015  RH  029%=      5-min Rain = 0
KHA3 180506Z 17014KT 17/M02 A2984 RMK A01 T01651015  RH  029%=      5-min Rain = 0
KHA3 180507Z 17013KT 17/M02 A2984 RMK A01 T01651015  RH  029%=      5-min Rain = 0
KHA3 180508Z 17014KT 16/M02 A2984 RMK A01 T01641015  RH  029%=      5-min Rain = 0
KHA3 180509Z 17015KT 16/M02 A2984 RMK A01 T01641015  RH  029%=      5-min Rain = 0
KHA3 180510Z 17014KT 16/M02 A2984 RMK A01 T01641016  RH  029%=      5-min Rain = 0
KHA3 180511Z 17015KT 16/M02 A2984 RMK A01 T01641016  RH  029%=      5-min Rain = 0
KHA3 180512Z 17015KT 16/M02 A2984 RMK A01 T01641017  RH  029%=      5-min Rain = 0
KHA3 180513Z 17013KT 16/M02 A2984 RMK A01 T01641017  RH  029%=      5-min Rain = 0
KHA3 180514Z 17013KT 16/M02 A2984 RMK A01 T01631017  RH  029%=      5-min Rain = 0
KHA3 180515Z 17014KT 16/M02 A2984 RMK A01 T01631017  RH  029%=      5-min Rain = 0
KHA3 180516Z 17014KT 16/M02 A2984 RMK A01 T01631017  RH  029%=      5-min Rain = 0
KHA3 180517Z 17014KT 16/M02 A2984 RMK A01 T01621017  RH  029%=      5-min Rain = 0
KHA3 180518Z 17013KT 16/M02 A2984 RMK A01 T01621018  RH  029%=      5-min Rain = 0
KHA3 180519Z 17014KT 16/M02 A2983 RMK A01 T01621018  RH  029%=      5-min Rain = 0
KHA3 180520Z 17015KT 16/M02 A2983 RMK A01 T01621019  RH  029%=      5-min Rain = 0
KHA3 180521Z 17016KT 16/M02 A2983 RMK A01 T01621020  RH  029%=      5-min Rain = 0
KHA3 180522Z 17015KT 16/M02 A2983 RMK A01 T01631020  RH  029%=      5-min Rain = 0
KHA3 180523Z 16015KT 16/M02 A2983 RMK A01 T01631019  RH  029%=      5-min Rain = 0
KHA3 180524Z 16016KT 16/M02 A2983 RMK A01 T01621019  RH  029%=      5-min Rain = 0
KHA3 180525Z 17015KT 16/M02 A2983 RMK A01 T01621019  RH  029%=      5-min Rain = 0
KHA3 180526Z 16016KT 16/M02 A2983 RMK A01 T01621019  RH  029%=      5-min Rain = 0
KHA3 180527Z 16016G21KT 16/M02 A2983 RMK A01 T01621019  RH  029%=      5-min Rain = 0
KHA3 180528Z 17017KT 16/M02 A2983 RMK A01 T01621019  RH  029%=      5-min Rain = 0
KHA3 180529Z 17015KT 16/M02 A2983 RMK A01 T01621019  RH  029%=      5-min Rain = 0
KHA3 180530Z 17014G19KT 16/M02 A2983 RMK A01 T01621019  RH  029%=      5-min Rain = 0
KHA3 180531Z 17016KT 16/M02 A2983 RMK A01 T01611019  RH  029%=      5-min Rain = 0
KHA3 180532Z 17015KT 16/M02 A2983 RMK A01 T01611019  RH  029%=      5-min Rain = 0
KHA3 180533Z 17016KT 16/M02 A2983 RMK A01 T01611020  RH  029%=      5-min Rain = 0
KHA3 180534Z 18016KT 16/M02 A2983 RMK A01 T01611020  RH  029%=      5-min Rain = 0
KHA3 180535Z 17015KT 16/M02 A2983 RMK A01 T01621020  RH  029%=      5-min Rain = 0
KHA3 180536Z 17015KT 16/M02 A2983 RMK A01 T01621020  RH  029%=      5-min Rain = 0
KHA3 180537Z 17017KT 16/M02 A2983 RMK A01 T01611020  RH  029%=      5-min Rain = 0
KHA3 180538Z 17016KT 16/M02 A2983 RMK A01 T01621020  RH  029%=      5-min Rain = 0
KHA3 180539Z 17016KT 16/M02 A2983 RMK A01 T01621019  RH  029%=      5-min Rain = 0
KHA3 180540Z 18015KT 16/M02 A2983 RMK A01 T01611019  RH  029%=      5-min Rain = 0
KHA3 180541Z 18016KT 16/M02 A2983 RMK A01 T01601019  RH  029%=      5-min Rain = 0
KHA3 180542Z 18016KT 16/M02 A2983 RMK A01 T01601019  RH  029%=      5-min Rain = 0
KHA3 180543Z 18016KT 16/M02 A2983 RMK A01 T01611019  RH  029%=      5-min Rain = 0
KHA3 180544Z 18015KT 16/M02 A2983 RMK A01 T01601019  RH  029%=      5-min Rain = 0
KHA3 180545Z 18016KT 16/M02 A2983 RMK A01 T01601019  RH  029%=      5-min Rain = 0
KHA3 180546Z 18016KT 16/M02 A2983 RMK A01 T01601019  RH  029%=      5-min Rain = 0
KHA3 180547Z 18016KT 16/M02 A2983 RMK A01 T01601019  RH  029%=      5-min Rain = 0
KHA3 180548Z 18016KT 16/M02 A2983 RMK A01 T01591019  RH  030%=      5-min Rain = 0
KHA3 180549Z 18018KT 16/M02 A2983 RMK A01 T01591018  RH  030%=      5-min Rain = 0
KHA3 180550Z 18017KT 16/M02 A2983 RMK A01 T01591018  RH  029%=      5-min Rain = 0
KHA3 180551Z 18016KT 16/M02 A2983 RMK A01 T01591018  RH  030%=      5-min Rain = 0
KHA3 180552Z 18017KT 16/M02 A2983 RMK A01 T01601018  RH  030%=      5-min Rain = 0
KHA3 180553Z 18016KT 16/M02 A2983 RMK A01 T01601018  RH  030%=      5-min Rain = 0
KHA3 180554Z 18016KT 16/M02 A2983 RMK A01 T01601018  RH  030%=      5-min Rain = 0
KHA3 180555Z 18015KT 16/M02 A2983 RMK A01 T01601017  RH  030%=      5-min Rain = 0
KHA3 180556Z 18017KT 16/M02 A2983 RMK A01 T01591017  RH  030%=      5-min Rain = 0
KHA3 180557Z 18017KT 16/M02 A2983 RMK A01 T01601017  RH  030%=      5-min Rain = 0
KHA3 180558Z 18015KT 16/M02 A2983 RMK A01 T01601017  RH  030%=      5-min Rain = 0
KHA3 180559Z 18016KT 16/M02 A2983 RMK A01 T01601016  RH  030%=      5-min Rain = 0
KHA3 180600Z 18017KT 16/M02 A2983 RMK A01 T01601016  RH  030%=      5-min Rain = 0
KHA3 180601Z 18014KT 16/M02 A2983 RMK A01 T01601016  RH  030%=      5-min Rain = 0
KHA3 180602Z 18015KT 16/M02 A2983 RMK A01 T01601016  RH  030%=      5-min Rain = 0
KHA3 180603Z 18015KT 16/M02 A2983 RMK A01 T01591015  RH  030%=      5-min Rain = 0
KHA3 180604Z 18017KT 16/M02 A2983 RMK A01 T01591016  RH  030%=      5-min Rain = 0
KHA3 180605Z 18016KT 16/M02 A2983 RMK A01 T01601015  RH  030%=      5-min Rain = 0
KHA3 180606Z 18015KT 16/M02 A2983 RMK A01 T01611015  RH  030%=      5-min Rain = 0
KHA3 180607Z 18016KT 16/M02 A2983 RMK A01 T01601015  RH  030%=      5-min Rain = 0
KHA3 180608Z 18015KT 16/M02 A2983 RMK A01 T01601015  RH  030%=      5-min Rain = 0
KHA3 180609Z 18016KT 16/M02 A2983 RMK A01 T01601015  RH  030%=      5-min Rain = 0
KHA3 180610Z 18015KT 16/M01 A2983 RMK A01 T01601014  RH  030%=      5-min Rain = 0
KHA3 180611Z 18014KT 16/M01 A2983 RMK A01 T01601014  RH  030%=      5-min Rain = 0
KHA3 180612Z 19015KT 16/M01 A2983 RMK A01 T01591014  RH  031%=      5-min Rain = 0
KHA3 180613Z 19015KT 16/M01 A2983 RMK A01 T01591014  RH  031%=      5-min Rain = 0
KHA3 180614Z 19015KT 16/M01 A2983 RMK A01 T01591013  RH  031%=      5-min Rain = 0
KHA3 180615Z 19016KT 16/M01 A2983 RMK A01 T01591013  RH  031%=      5-min Rain = 0
KHA3 180616Z 19015KT 16/M01 A2983 RMK A01 T01601013  RH  031%=      5-min Rain = 0
KHA3 180617Z 19015KT 16/M01 A2983 RMK A01 T01601013  RH  031%=      5-min Rain = 0
KHA3 180618Z 19015KT 16/M01 A2983 RMK A01 T01591013  RH  031%=      5-min Rain = 0
KHA3 180619Z 19015KT 16/M01 A2983 RMK A01 T01591013  RH  031%=      5-min Rain = 0
KHA3 180620Z 18015KT 16/M01 A2983 RMK A01 T01581012  RH  031%=      5-min Rain = 0
KHA3 180621Z 18015KT 16/M01 A2983 RMK A01 T01581012  RH  031%=      5-min Rain = 0
KHA3 180622Z 19013KT 16/M01 A2983 RMK A01 T01581012  RH  031%=      5-min Rain = 0
KHA3 180623Z 19014KT 16/M01 A2983 RMK A01 T01581012  RH  031%=      5-min Rain = 0
KHA3 180624Z 19015KT 16/M01 A2983 RMK A01 T01581011  RH  031%=      5-min Rain = 0
KHA3 180625Z 19015KT 16/M01 A2983 RMK A01 T01581011  RH  031%=      5-min Rain = 0
KHA3 180626Z 19014KT 16/M01 A2983 RMK A01 T01581011  RH  032%=      5-min Rain = 0
KHA3 180627Z 19014KT 16/M01 A2983 RMK A01 T01581011  RH  032%=      5-min Rain = 0
KHA3 180628Z 18014KT 16/M01 A2983 RMK A01 T01571010  RH  032%=      5-min Rain = 0
KHA3 180629Z 18015KT 16/M01 A2983 RMK A01 T01571011  RH  032%=      5-min Rain = 0
KHA3 180630Z 18015KT 16/M01 A2983 RMK A01 T01571011  RH  032%=      5-min Rain = 0
KHA3 180631Z 18015KT 16/M01 A2983 RMK A01 T01581010  RH  032%=      5-min Rain = 0
KHA3 180632Z 18015KT 16/M01 A2983 RMK A01 T01571010  RH  032%=      5-min Rain = 0
KHA3 180633Z 18014KT 16/M01 A2983 RMK A01 T01571010  RH  032%=      5-min Rain = 0
KHA3 180634Z 18016KT 16/M01 A2983 RMK A01 T01571010  RH  032%=      5-min Rain = 0
KHA3 180635Z 18014KT 16/M01 A2983 RMK A01 T01571010  RH  032%=      5-min Rain = 0
KHA3 180636Z 18015KT 16/M01 A2983 RMK A01 T01571010  RH  032%=      5-min Rain = 0
KHA3 180637Z 18014KT 16/M01 A2983 RMK A01 T01561010  RH  032%=      5-min Rain = 0
KHA3 180638Z 18015KT 16/M01 A2983 RMK A01 T01561010  RH  032%=      5-min Rain = 0
KHA3 180639Z 18015KT 16/M01 A2983 RMK A01 T01561009  RH  032%=      5-min Rain = 0
KHA3 180640Z 18016KT 16/M01 A2983 RMK A01 T01561009  RH  032%=      5-min Rain = 0
KHA3 180641Z 18016KT 16/M01 A2983 RMK A01 T01561009  RH  032%=      5-min Rain = 0
KHA3 180642Z 18014KT 16/M01 A2983 RMK A01 T01571009  RH  032%=      5-min Rain = 0
KHA3 180643Z 18014KT 16/M01 A2983 RMK A01 T01571008  RH  032%=      5-min Rain = 0
KHA3 180644Z 18015KT 16/M01 A2983 RMK A01 T01571008  RH  032%=      5-min Rain = 0
KHA3 180645Z 18014KT 16/M01 A2983 RMK A01 T01561009  RH  032%=      5-min Rain = 0
KHA3 180646Z 18015KT 16/M01 A2983 RMK A01 T01561008  RH  032%=      5-min Rain = 0
KHA3 180647Z 19015KT 16/M01 A2983 RMK A01 T01571008  RH  032%=      5-min Rain = 0
KHA3 180648Z 19013KT 16/M01 A2983 RMK A01 T01571008  RH  032%=      5-min Rain = 0
KHA3 180649Z 19014KT 16/M01 A2983 RMK A01 T01561007  RH  033%=      5-min Rain = 0
KHA3 180650Z 19013KT 16/M01 A2984 RMK A01 T01561007  RH  033%=      5-min Rain = 0
KHA3 180651Z 19013KT 16/M01 A2983 RMK A01 T01561007  RH  033%=      5-min Rain = 0
KHA3 180652Z 19015KT 16/M01 A2983 RMK A01 T01551007  RH  033%=      5-min Rain = 0
KHA3 180653Z 19015KT 16/M01 A2983 RMK A01 T01551007  RH  033%=      5-min Rain = 0
KHA3 180654Z 19014KT 16/M01 A2983 RMK A01 T01551007  RH  033%=      5-min Rain = 0
KHA3 180655Z 19013KT 16/M01 A2983 RMK A01 T01561007  RH  033%=      5-min Rain = 0
KHA3 180656Z 19013KT 16/M01 A2983 RMK A01 T01551006  RH  033%=      5-min Rain = 0
KHA3 180657Z 18014KT 15/M01 A2983 RMK A01 T01541006  RH  033%=      5-min Rain = 0
KHA3 180658Z 19014KT 15/M01 A2983 RMK A01 T01541006  RH  033%=      5-min Rain = 0
KHA3 180659Z 19014KT 15/M01 A2983 RMK A01 T01541006  RH  033%=      5-min Rain = 0
KHA3 180700Z 19014KT 15/M01 A2983 RMK A01 T01541006  RH  034%=      5-min Rain = 0
KHA3 180701Z 19014KT 15/M01 A2983 RMK A01 T01541005  RH  034%=      5-min Rain = 0
KHA3 180702Z 19015KT 15/M01 A2983 RMK A01 T01541006  RH  034%=      5-min Rain = 0
KHA3 180703Z 18015KT 15/M01 A2983 RMK A01 T01541005  RH  034%=      5-min Rain = 0
KHA3 180704Z 19015KT 15/M01 A2983 RMK A01 T01541005  RH  034%=      5-min Rain = 0
KHA3 180705Z 18016KT 15/M01 A2983 RMK A01 T01541005  RH  034%=      5-min Rain = 0
KHA3 180706Z 19014KT 15/M01 A2983 RMK A01 T01541005  RH  034%=      5-min Rain = 0
KHA3 180707Z 19015KT 15/M01 A2983 RMK A01 T01541005  RH  034%=      5-min Rain = 0
KHA3 180708Z 19015KT 15/M00 A2983 RMK A01 T01541004  RH  034%=      5-min Rain = 0
KHA3 180709Z 19015KT 15/M00 A2983 RMK A01 T01541004  RH  034%=      5-min Rain = 0
KHA3 180710Z 19014KT 15/M00 A2983 RMK A01 T01541004  RH  034%=      5-min Rain = 0
KHA3 180711Z 19013KT 15/M00 A2983 RMK A01 T01541004  RH  034%=      5-min Rain = 0
KHA3 180712Z 19012KT 15/M00 A2983 RMK A01 T01541003  RH  034%=      5-min Rain = 0
KHA3 180713Z 19012KT 15/M00 A2983 RMK A01 T01531003  RH  034%=      5-min Rain = 0
KHA3 180714Z 18014KT 15/M00 A2983 RMK A01 T01521003  RH  035%=      5-min Rain = 0
KHA3 180715Z 19015KT 15/M00 A2983 RMK A01 T01521003  RH  035%=      5-min Rain = 0
KHA3 180716Z 18014KT 15/M00 A2983 RMK A01 T01531003  RH  034%=      5-min Rain = 0
KHA3 180717Z 18015KT 15/M00 A2983 RMK A01 T01531003  RH  034%=      5-min Rain = 0
KHA3 180718Z 18014KT 15/M00 A2983 RMK A01 T01541003  RH  034%=      5-min Rain = 0
KHA3 180719Z 18014KT 15/M00 A2983 RMK A01 T01531003  RH  034%=      5-min Rain = 0
KHA3 180720Z 18014KT 15/M00 A2983 RMK A01 T01531002  RH  035%=      5-min Rain = 0
KHA3 180721Z 18013KT 15/M00 A2983 RMK A01 T01531002  RH  035%=      5-min Rain = 0
KHA3 180722Z 18014KT 15/M00 A2983 RMK A01 T01521002  RH  035%=      5-min Rain = 0
KHA3 180723Z 18014KT 15/M00 A2983 RMK A01 T01521002  RH  035%=      5-min Rain = 0
KHA3 180724Z 18014KT 15/M00 A2983 RMK A01 T01521002  RH  035%=      5-min Rain = 0
KHA3 180725Z 18015KT 15/M00 A2983 RMK A01 T01521002  RH  035%=      5-min Rain = 0
KHA3 180726Z 19014KT 15/M00 A2983 RMK A01 T01521002  RH  035%=      5-min Rain = 0
KHA3 180727Z 19014KT 15/M00 A2983 RMK A01 T01521002  RH  035%=      5-min Rain = 0
KHA3 180728Z 18014KT 15/M00 A2982 RMK A01 T01521002  RH  035%=      5-min Rain = 0
KHA3 180729Z 18013KT 15/M00 A2982 RMK A01 T01521001  RH  035%=      5-min Rain = 0
KHA3 180730Z 18013KT 15/M00 A2982 RMK A01 T01521001  RH  035%=      5-min Rain = 0
KHA3 180731Z 18012KT 15/M00 A2982 RMK A01 T01511002  RH  035%=      5-min Rain = 0
KHA3 180732Z 19014KT 15/M00 A2982 RMK A01 T01511001  RH  035%=      5-min Rain = 0
KHA3 180733Z 19014KT 15/M00 A2982 RMK A01 T01511002  RH  035%=      5-min Rain = 0
KHA3 180734Z 19013KT 15/M00 A2982 RMK A01 T01521001  RH  035%=      5-min Rain = 0
KHA3 180735Z 18013KT 15/M00 A2982 RMK A01 T01521001  RH  035%=      5-min Rain = 0
KHA3 180736Z 18014KT 15/M00 A2982 RMK A01 T01511001  RH  035%=      5-min Rain = 0
KHA3 180737Z 18013KT 15/M00 A2982 RMK A01 T01521001  RH  035%=      5-min Rain = 0
KHA3 180738Z 18013KT 15/M00 A2982 RMK A01 T01521001  RH  035%=      5-min Rain = 0
KHA3 180739Z 18013KT 15/M00 A2982 RMK A01 T01511001  RH  035%=      5-min Rain = 0
KHA3 180740Z 18013KT 15/M00 A2982 RMK A01 T01501001  RH  035%=      5-min Rain = 0
KHA3 180741Z 18014KT 15/M00 A2982 RMK A01 T01511001  RH  036%=      5-min Rain = 0
KHA3 180742Z 18015KT 15/M00 A2982 RMK A01 T01501001  RH  035%=      5-min Rain = 0
KHA3 180743Z 18014KT 15/M00 A2982 RMK A01 T01501001  RH  035%=      5-min Rain = 0
KHA3 180744Z 18014KT 15/M00 A2982 RMK A01 T01501001  RH  036%=      5-min Rain = 0
KHA3 180745Z 18013KT 15/M00 A2982 RMK A01 T01501001  RH  036%=      5-min Rain = 0
KHA3 180746Z 18014KT 15/M00 A2982 RMK A01 T01501001  RH  036%=      5-min Rain = 0
KHA3 180747Z 18012KT 15/00 A2982 RMK A01 T015000-0  RH  036%=      5-min Rain = 0
KHA3 180748Z 18014KT 15/M00 A2982 RMK A01 T01491001  RH  036%=      5-min Rain = 0
KHA3 180749Z 18013KT 15/M00 A2982 RMK A01 T01501001  RH  036%=      5-min Rain = 0
KHA3 180750Z 18012KT 15/M00 A2982 RMK A01 T01501001  RH  036%=      5-min Rain = 0
KHA3 180751Z 19012KT 15/M00 A2982 RMK A01 T01501001  RH  036%=      5-min Rain = 0
KHA3 180752Z 19012KT 15/M00 A2982 RMK A01 T01491001  RH  036%=      5-min Rain = 0
KHA3 180753Z 18012KT 15/00 A2982 RMK A01 T014900-0  RH  036%=      5-min Rain = 0
KHA3 180754Z 19011KT 15/00 A2982 RMK A01 T014900-0  RH  036%=      5-min Rain = 0
KHA3 180755Z 18011KT 15/00 A2982 RMK A01 T014800-0  RH  036%=      5-min Rain = 0
KHA3 180756Z 18012KT 15/00 A2982 RMK A01 T014700-0  RH  036%=      5-min Rain = 0
KHA3 180757Z 18012KT 15/00 A2982 RMK A01 T014700-0  RH  037%=      5-min Rain = 0
KHA3 180758Z 18013KT 15/00 A2982 RMK A01 T014700-0  RH  036%=      5-min Rain = 0
KHA3 180759Z 18013KT 15/00 A2982 RMK A01 T014800-0  RH  036%=      5-min Rain = 0
KHA3 180800Z 19011KT 15/00 A2982 RMK A01 T014800-0  RH  036%=      5-min Rain = 0
KHA3 180801Z 19012KT 15/00 A2983 RMK A01 T01470000  RH  037%=      5-min Rain = 0
KHA3 180802Z 19011KT 15/00 A2983 RMK A01 T01470000  RH  037%=      5-min Rain = 0
KHA3 180803Z 19011KT 15/00 A2983 RMK A01 T01470001  RH  037%=      5-min Rain = 0
KHA3 180804Z 19011KT 15/00 A2982 RMK A01 T01460000  RH  037%=      5-min Rain = 0
KHA3 180805Z 19010KT 15/00 A2982 RMK A01 T014600-0  RH  037%=      5-min Rain = 0
KHA3 180806Z 19011KT 15/00 A2982 RMK A01 T01460000  RH  037%=      5-min Rain = 0
KHA3 180807Z 19010KT 15/00 A2982 RMK A01 T01460001  RH  037%=      5-min Rain = 0
KHA3 180808Z 20009KT 15/00 A2983 RMK A01 T01460000  RH  037%=      5-min Rain = 0
KHA3 180809Z 20010KT 15/00 A2982 RMK A01 T01450000  RH  037%=      5-min Rain = 0
KHA3 180810Z 19010KT 15/00 A2982 RMK A01 T01450001  RH  037%=      5-min Rain = 0
KHA3 180811Z 20009KT 15/00 A2982 RMK A01 T01450000  RH  037%=      5-min Rain = 0
KHA3 180812Z 20010KT 14/00 A2982 RMK A01 T01440000  RH  037%=      5-min Rain = 0
KHA3 180813Z 20009KT 14/00 A2982 RMK A01 T01440001  RH  037%=      5-min Rain = 0
KHA3 180814Z 20008KT 14/00 A2982 RMK A01 T01440001  RH  038%=      5-min Rain = 0
KHA3 180815Z 20009KT 14/00 A2982 RMK A01 T01430001  RH  038%=      5-min Rain = 0
KHA3 180816Z 20009KT 14/00 A2982 RMK A01 T01430000  RH  038%=      5-min Rain = 0
KHA3 180817Z 20008KT 14/00 A2982 RMK A01 T01420001  RH  038%=      5-min Rain = 0
KHA3 180818Z 20009KT 14/00 A2982 RMK A01 T01420001  RH  038%=      5-min Rain = 0
KHA3 180819Z 20009KT 14/00 A2982 RMK A01 T01410000  RH  038%=      5-min Rain = 0
KHA3 180820Z 20009KT 14/00 A2982 RMK A01 T01420000  RH  038%=      5-min Rain = 0
KHA3 180821Z 20009KT 14/00 A2982 RMK A01 T01420000  RH  038%=      5-min Rain = 0
KHA3 180822Z 20008KT 14/00 A2982 RMK A01 T01420000  RH  038%=      5-min Rain = 0
KHA3 180823Z 20008KT 14/00 A2982 RMK A01 T01420000  RH  038%=      5-min Rain = 0
KHA3 180824Z 19009KT 14/00 A2982 RMK A01 T01430000  RH  038%=      5-min Rain = 0
KHA3 180825Z 19008KT 14/00 A2982 RMK A01 T01430001  RH  038%=      5-min Rain = 0
KHA3 180826Z 19008KT 14/00 A2982 RMK A01 T01420001  RH  038%=      5-min Rain = 0
KHA3 180827Z 19009KT 14/00 A2982 RMK A01 T01410001  RH  038%=      5-min Rain = 0
KHA3 180828Z 20008KT 14/00 A2982 RMK A01 T01410001  RH  038%=      5-min Rain = 0
KHA3 180829Z 20008KT 14/00 A2982 RMK A01 T01400001  RH  038%=      5-min Rain = 0
KHA3 180830Z 20008KT 14/00 A2982 RMK A01 T01400001  RH  038%=      5-min Rain = 0
KHA3 180831Z 19008KT 14/00 A2982 RMK A01 T01400001  RH  039%=      5-min Rain = 0
KHA3 180832Z 19009KT 14/00 A2982 RMK A01 T01390001  RH  039%=      5-min Rain = 0
KHA3 180833Z 19008KT 14/00 A2982 RMK A01 T01390001  RH  039%=      5-min Rain = 0
KHA3 180834Z 19010KT 14/00 A2981 RMK A01 T01390001  RH  039%=      5-min Rain = 0
KHA3 180835Z 19010KT 14/00 A2981 RMK A01 T01390001  RH  039%=      5-min Rain = 0
KHA3 180836Z 18009KT 14/00 A2981 RMK A01 T01400001  RH  039%=      5-min Rain = 0
KHA3 180837Z 19011KT 14/00 A2981 RMK A01 T01400001  RH  039%=      5-min Rain = 0
KHA3 180838Z 19011KT 14/00 A2981 RMK A01 T01400001  RH  038%=      5-min Rain = 0
KHA3 180839Z 19011KT 14/00 A2981 RMK A01 T01400001  RH  039%=      5-min Rain = 0
KHA3 180840Z 19012KT 14/00 A2981 RMK A01 T01400001  RH  038%=      5-min Rain = 0
KHA3 180841Z 19012KT 14/00 A2981 RMK A01 T01400001  RH  038%=      5-min Rain = 0
KHA3 180842Z 19012KT 14/00 A298 RMK A01 T01420001  RH  038%=      5-min Rain = 0
KHA3 180843Z 19012KT 14/00 A298 RMK A01 T01420001  RH  038%=      5-min Rain = 0
KHA3 180844Z 19013KT 14/00 A298 RMK A01 T01430001  RH  038%=      5-min Rain = 0
KHA3 180845Z 19012KT 14/00 A298 RMK A01 T01440001  RH  038%=      5-min Rain = 0
KHA3 180846Z 19011KT 15/00 A298 RMK A01 T01450001  RH  037%=      5-min Rain = 0
KHA3 180847Z 19013KT 15/00 A298 RMK A01 T01450001  RH  038%=      5-min Rain = 0
KHA3 180848Z 19012KT 15/00 A298 RMK A01 T01450002  RH  037%=      5-min Rain = 0
KHA3 180849Z 19013KT 15/00 A2981 RMK A01 T01450002  RH  037%=      5-min Rain = 0
KHA3 180850Z 19012KT 15/00 A2981 RMK A01 T01450002  RH  037%=      5-min Rain = 0
KHA3 180851Z 19011KT 15/00 A2981 RMK A01 T01450002  RH  038%=      5-min Rain = 0
KHA3 180852Z 19012KT 14/00 A2981 RMK A01 T01440002  RH  038%=      5-min Rain = 0
KHA3 180853Z 19011KT 14/00 A2981 RMK A01 T01440002  RH  038%=      5-min Rain = 0
KHA3 180854Z 19013KT 14/00 A2981 RMK A01 T01430002  RH  038%=      5-min Rain = 0
KHA3 180855Z 19012KT 14/00 A2981 RMK A01 T01430002  RH  038%=      5-min Rain = 0
KHA3 180856Z 19012KT 14/00 A2981 RMK A01 T01430002  RH  038%=      5-min Rain = 0
KHA3 180857Z 19013KT 14/00 A2981 RMK A01 T01420002  RH  038%=      5-min Rain = 0
KHA3 180858Z 19012KT 14/00 A2981 RMK A01 T01420002  RH  038%=      5-min Rain = 0
KHA3 180859Z 19012KT 14/00 A2981 RMK A01 T01420002  RH  038%=      5-min Rain = 0
KHA3 180900Z 19011KT 14/00 A2981 RMK A01 T01420002  RH  038%=      5-min Rain = 0
KHA3 180901Z 19012KT 14/00 A298 RMK A01 T01420002  RH  038%=      5-min Rain = 0
KHA3 180902Z 19012KT 14/00 A298 RMK A01 T01410002  RH  039%=      5-min Rain = 0
KHA3 180903Z 19012KT 14/00 A298 RMK A01 T01410002  RH  039%=      5-min Rain = 0
KHA3 180904Z 19012KT 14/00 A2981 RMK A01 T01400002  RH  039%=      5-min Rain = 0
KHA3 180905Z 20011KT 14/00 A2981 RMK A01 T01400002  RH  039%=      5-min Rain = 0
KHA3 180906Z 19011KT 14/00 A2981 RMK A01 T01400003  RH  039%=      5-min Rain = 0
KHA3 180907Z 20012KT 14/00 A2981 RMK A01 T01390002  RH  039%=      5-min Rain = 0
KHA3 180908Z 20011KT 14/00 A298 RMK A01 T01390002  RH  039%=      5-min Rain = 0
KHA3 180909Z 20012KT 14/00 A298 RMK A01 T01390003  RH  039%=      5-min Rain = 0
KHA3 180910Z 20012KT 14/00 A298 RMK A01 T01390003  RH  039%=      5-min Rain = 0
KHA3 180911Z 20012KT 14/00 A298 RMK A01 T01390002  RH  039%=      5-min Rain = 0
KHA3 180912Z 20012KT 14/00 A298 RMK A01 T01390003  RH  039%=      5-min Rain = 0
KHA3 180913Z 20011KT 14/00 A298 RMK A01 T01390003  RH  039%=      5-min Rain = 0
KHA3 180914Z 20012KT 14/00 A298 RMK A01 T01390003  RH  039%=      5-min Rain = 0
KHA3 180915Z 20012KT 14/00 A298 RMK A01 T01400003  RH  039%=      5-min Rain = 0
KHA3 180916Z 20012KT 14/00 A298 RMK A01 T01390003  RH  039%=      5-min Rain = 0
KHA3 180917Z 19012KT 14/00 A298 RMK A01 T01390003  RH  039%=      5-min Rain = 0
KHA3 180918Z 19012KT 14/00 A298 RMK A01 T01390004  RH  039%=      5-min Rain = 0
KHA3 180919Z 19013KT 14/00 A2979 RMK A01 T01390004  RH  039%=      5-min Rain = 0
KHA3 180920Z 19014KT 14/00 A2979 RMK A01 T01400003  RH  039%=      5-min Rain = 0
KHA3 180921Z 19015KT 14/00 A2979 RMK A01 T01400004  RH  039%=      5-min Rain = 0
KHA3 180922Z 19014KT 14/00 A2979 RMK A01 T01410004  RH  039%=      5-min Rain = 0
KHA3 180923Z 19013KT 14/00 A2979 RMK A01 T01420004  RH  039%=      5-min Rain = 0
KHA3 180924Z 18014KT 14/00 A2979 RMK A01 T01420004  RH  039%=      5-min Rain = 0
KHA3 180925Z 18015KT 14/00 A2979 RMK A01 T01420004  RH  039%=      5-min Rain = 0
KHA3 180926Z 19014KT 14/00 A2979 RMK A01 T01430004  RH  039%=      5-min Rain = 0
KHA3 180927Z 19014KT 14/00 A2979 RMK A01 T01430004  RH  039%=      5-min Rain = 0
KHA3 180928Z 18014KT 14/00 A2979 RMK A01 T01430004  RH  039%=      5-min Rain = 0
KHA3 180929Z 19014KT 14/00 A2979 RMK A01 T01440004  RH  039%=      5-min Rain = 0
KHA3 180930Z 18015KT 14/00 A2979 RMK A01 T01430004  RH  039%=      5-min Rain = 0
KHA3 180931Z 18014KT 14/00 A2979 RMK A01 T01440004  RH  039%=      5-min Rain = 0
KHA3 180932Z 18013KT 14/00 A2979 RMK A01 T01440004  RH  039%=      5-min Rain = 0
KHA3 180933Z 18015KT 14/00 A2979 RMK A01 T01430004  RH  039%=      5-min Rain = 0
KHA3 180934Z 19015KT 14/01 A2979 RMK A01 T01430005  RH  039%=      5-min Rain = 0
KHA3 180935Z 18014KT 14/01 A2979 RMK A01 T01430005  RH  039%=      5-min Rain = 0
KHA3 180936Z 18013KT 14/01 A2979 RMK A01 T01430005  RH  039%=      5-min Rain = 0
KHA3 180937Z 18013KT 14/01 A2979 RMK A01 T01430005  RH  039%=      5-min Rain = 0
KHA3 180938Z 19014KT 14/01 A2979 RMK A01 T01430005  RH  039%=      5-min Rain = 0
KHA3 180939Z 18014KT 14/01 A2979 RMK A01 T01430005  RH  039%=      5-min Rain = 0
KHA3 180940Z 19013KT 14/01 A2979 RMK A01 T01430005  RH  039%=      5-min Rain = 0
KHA3 180941Z 19013KT 14/01 A2979 RMK A01 T01430006  RH  039%=      5-min Rain = 0
KHA3 180942Z 19014KT 14/01 A2979 RMK A01 T01430005  RH  039%=      5-min Rain = 0
KHA3 180943Z 19013KT 14/01 A2979 RMK A01 T01430006  RH  039%=      5-min Rain = 0
KHA3 180944Z 18013KT 14/01 A2979 RMK A01 T01430006  RH  039%=      5-min Rain = 0
KHA3 180945Z 19013KT 14/01 A2979 RMK A01 T01420006  RH  039%=      5-min Rain = 0
KHA3 180946Z 18014KT 14/01 A2979 RMK A01 T01420006  RH  039%=      5-min Rain = 0
KHA3 180947Z 19013KT 14/01 A2979 RMK A01 T01430006  RH  039%=      5-min Rain = 0
KHA3 180948Z 19012KT 14/01 A2978 RMK A01 T01430006  RH  039%=      5-min Rain = 0
KHA3 180949Z 19013KT 14/01 A2979 RMK A01 T01420006  RH  039%=      5-min Rain = 0
KHA3 180950Z 18014KT 14/01 A2979 RMK A01 T01420006  RH  040%=      5-min Rain = 0
KHA3 180951Z 18015KT 14/01 A2979 RMK A01 T01410006  RH  040%=      5-min Rain = 0
KHA3 180952Z 19012KT 14/01 A2979 RMK A01 T01410006  RH  040%=      5-min Rain = 0
KHA3 180953Z 19013KT 14/01 A2979 RMK A01 T01410006  RH  040%=      5-min Rain = 0
KHA3 180954Z 18014KT 14/01 A2979 RMK A01 T01400006  RH  040%=      5-min Rain = 0
KHA3 180955Z 19013KT 14/01 A2978 RMK A01 T01400006  RH  040%=      5-min Rain = 0
KHA3 180956Z 19013KT 14/01 A2978 RMK A01 T01390006  RH  040%=      5-min Rain = 0
KHA3 180957Z 18012KT 14/01 A2978 RMK A01 T01390006  RH  040%=      5-min Rain = 0
KHA3 180958Z 18012KT 14/01 A2979 RMK A01 T01390006  RH  040%=      5-min Rain = 0
KHA3 180959Z 18013KT 14/01 A2978 RMK A01 T01380006  RH  041%=      5-min Rain = 0
KHA3 181000Z 18013KT 14/01 A2978 RMK A01 T01380007  RH  041%=      5-min Rain = 0
KHA3 181001Z 18013KT 14/01 A2979 RMK A01 T01380007  RH  041%=      5-min Rain = 0
KHA3 181002Z 18013KT 14/01 A2979 RMK A01 T01380007  RH  041%=      5-min Rain = 0
KHA3 181003Z 18014KT 14/01 A2979 RMK A01 T01370007  RH  041%=      5-min Rain = 0
KHA3 181004Z 18012KT 14/01 A2979 RMK A01 T01370006  RH  041%=      5-min Rain = 0
KHA3 181005Z 18014KT 14/01 A2979 RMK A01 T01370006  RH  041%=      5-min Rain = 0
KHA3 181006Z 18013KT 14/01 A2979 RMK A01 T01360006  RH  041%=      5-min Rain = 0
KHA3 181007Z 18013KT 14/01 A2979 RMK A01 T01360006  RH  041%=      5-min Rain = 0
KHA3 181008Z 18014KT 14/01 A2978 RMK A01 T01350006  RH  041%=      5-min Rain = 0
KHA3 181009Z 18015KT 14/01 A2978 RMK A01 T01350006  RH  041%=      5-min Rain = 0
KHA3 181010Z 18013KT 14/01 A2978 RMK A01 T01350006  RH  041%=      5-min Rain = 0
KHA3 181011Z 18014KT 14/01 A2978 RMK A01 T01350007  RH  041%=      5-min Rain = 0
KHA3 181012Z 18015KT 14/01 A2978 RMK A01 T01350006  RH  042%=      5-min Rain = 0
KHA3 181013Z 18014KT 13/01 A2978 RMK A01 T01340007  RH  042%=      5-min Rain = 0
KHA3 181014Z 18013KT 13/01 A2978 RMK A01 T01340007  RH  042%=      5-min Rain = 0
KHA3 181015Z 18013KT 13/01 A2979 RMK A01 T01340007  RH  042%=      5-min Rain = 0
KHA3 181016Z 18014KT 13/01 A2978 RMK A01 T01330007  RH  042%=      5-min Rain = 0
KHA3 181017Z 18014KT 13/01 A2978 RMK A01 T01330007  RH  042%=      5-min Rain = 0
KHA3 181018Z 18012KT 13/01 A2979 RMK A01 T01330007  RH  042%=      5-min Rain = 0
KHA3 181019Z 18013KT 13/01 A2979 RMK A01 T01330007  RH  042%=      5-min Rain = 0
KHA3 181020Z 18012KT 13/01 A2979 RMK A01 T01320007  RH  042%=      5-min Rain = 0
KHA3 181021Z 18013KT 13/01 A2979 RMK A01 T01330008  RH  042%=      5-min Rain = 0
KHA3 181022Z 18013KT 13/01 A2979 RMK A01 T01330008  RH  042%=      5-min Rain = 0
KHA3 181023Z 18014KT 13/01 A2979 RMK A01 T01330007  RH  042%=      5-min Rain = 0
KHA3 181024Z 18013KT 13/01 A2979 RMK A01 T01330008  RH  042%=      5-min Rain = 0
KHA3 181025Z 18014KT 13/01 A2978 RMK A01 T01320007  RH  042%=      5-min Rain = 0
KHA3 181026Z 18013KT 13/01 A2978 RMK A01 T01340009  RH  042%=      5-min Rain = 0
KHA3 181027Z 18013KT 13/01 A2978 RMK A01 T01340008  RH  042%=      5-min Rain = 0
KHA3 181028Z 18013KT 13/01 A2978 RMK A01 T01340008  RH  042%=      5-min Rain = 0
KHA3 181029Z 18013KT 13/01 A2978 RMK A01 T01340008  RH  042%=      5-min Rain = 0
KHA3 181030Z 18013KT 14/01 A2978 RMK A01 T01350009  RH  042%=      5-min Rain = 0
KHA3 181031Z 18013KT 14/01 A2978 RMK A01 T01350009  RH  042%=      5-min Rain = 0
KHA3 181032Z 18013KT 14/01 A2978 RMK A01 T01350009  RH  042%=      5-min Rain = 0
KHA3 181033Z 18012KT 14/01 A2978 RMK A01 T01360009  RH  042%=      5-min Rain = 0
KHA3 181034Z 18013KT 14/01 A2978 RMK A01 T01360010  RH  042%=      5-min Rain = 0
KHA3 181035Z 18013KT 14/01 A2978 RMK A01 T01360009  RH  042%=      5-min Rain = 0
KHA3 181036Z 17012KT 14/01 A2978 RMK A01 T01360009  RH  042%=      5-min Rain = 0
KHA3 181037Z 18012KT 14/01 A2978 RMK A01 T01350009  RH  042%=      5-min Rain = 0
KHA3 181038Z 17014KT 14/01 A2978 RMK A01 T01350009  RH  042%=      5-min Rain = 0
KHA3 181039Z 17013KT 14/01 A2978 RMK A01 T01360009  RH  042%=      5-min Rain = 0
KHA3 181040Z 18012KT 14/01 A2978 RMK A01 T01360009  RH  042%=      5-min Rain = 0
KHA3 181041Z 18009KT 14/01 A2978 RMK A01 T01360009  RH  042%=      5-min Rain = 0
KHA3 181042Z 18011KT 14/01 A2978 RMK A01 T01360010  RH  042%=      5-min Rain = 0
KHA3 181043Z 17011KT 14/01 A2978 RMK A01 T01360010  RH  042%=      5-min Rain = 0
KHA3 181044Z 18012KT 14/01 A2978 RMK A01 T01360011  RH  042%=      5-min Rain = 0
KHA3 181045Z 17012KT 14/01 A2978 RMK A01 T01360011  RH  042%=      5-min Rain = 0
KHA3 181046Z 17012KT 14/01 A2978 RMK A01 T01350011  RH  043%=      5-min Rain = 0
KHA3 181047Z 17013KT 14/01 A2978 RMK A01 T01350011  RH  043%=      5-min Rain = 0
KHA3 181048Z 17012KT 14/01 A2978 RMK A01 T01350011  RH  043%=      5-min Rain = 0
KHA3 181049Z 17011KT 14/01 A2978 RMK A01 T01360011  RH  043%=      5-min Rain = 0
KHA3 181050Z 17011KT 14/01 A2978 RMK A01 T01360011  RH  043%=      5-min Rain = 0
KHA3 181051Z 18010KT 14/01 A2978 RMK A01 T01360011  RH  043%=      5-min Rain = 0
KHA3 181052Z 18009KT 14/01 A2978 RMK A01 T01360012  RH  043%=      5-min Rain = 0
KHA3 181053Z 18008KT 14/01 A2979 RMK A01 T01350012  RH  043%=      5-min Rain = 0
KHA3 181054Z 18010KT 13/01 A2979 RMK A01 T01340012  RH  043%=      5-min Rain = 0
KHA3 181055Z 18009KT 13/01 A2979 RMK A01 T01340012  RH  043%=      5-min Rain = 0
KHA3 181056Z 18010KT 13/01 A2979 RMK A01 T01340012  RH  043%=      5-min Rain = 0
KHA3 181057Z 18011KT 13/01 A2979 RMK A01 T01340013  RH  043%=      5-min Rain = 0
KHA3 181058Z 18009KT 14/01 A2979 RMK A01 T01350013  RH  043%=      5-min Rain = 0
KHA3 181059Z 18008KT 14/01 A2979 RMK A01 T01350013  RH  043%=      5-min Rain = 0
KHA3 181100Z 18010KT 14/01 A2979 RMK A01 T01350013  RH  043%=      5-min Rain = 0
KHA3 181101Z 18007KT 14/01 A2979 RMK A01 T01350014  RH  044%=      5-min Rain = 0
KHA3 181102Z 18008KT 14/01 A2979 RMK A01 T01350014  RH  044%=      5-min Rain = 0
KHA3 181103Z 18007KT 13/01 A2979 RMK A01 T01340014  RH  044%=      5-min Rain = 0
KHA3 181104Z 18007KT 13/01 A2979 RMK A01 T01330014  RH  044%=      5-min Rain = 0
KHA3 181105Z 18007KT 13/01 A2979 RMK A01 T01320014  RH  044%=      5-min Rain = 0
KHA3 181106Z 18007KT 13/01 A2979 RMK A01 T01320014  RH  045%=      5-min Rain = 0
KHA3 181107Z 19008KT 13/01 A2979 RMK A01 T01310014  RH  045%=      5-min Rain = 0
KHA3 181108Z 18008KT 13/01 A2978 RMK A01 T01310014  RH  045%=      5-min Rain = 0
KHA3 181109Z 18009KT 13/02 A2978 RMK A01 T01310015  RH  045%=      5-min Rain = 0
KHA3 181110Z 19007KT 13/02 A2978 RMK A01 T01310015  RH  045%=      5-min Rain = 0
KHA3 181111Z 18008KT 13/02 A2978 RMK A01 T01300015  RH  045%=      5-min Rain = 0
KHA3 181112Z 18007KT 13/02 A2978 RMK A01 T01300015  RH  046%=      5-min Rain = 0
KHA3 181113Z 19008KT 13/02 A2978 RMK A01 T01300016  RH  046%=      5-min Rain = 0
KHA3 181114Z 18007KT 13/02 A2978 RMK A01 T01300015  RH  046%=      5-min Rain = 0
KHA3 181115Z 19007KT 13/02 A2978 RMK A01 T01300016  RH  046%=      5-min Rain = 0
KHA3 181116Z 18008KT 13/02 A2978 RMK A01 T01300016  RH  046%=      5-min Rain = 0
KHA3 181117Z 18007KT 13/02 A2978 RMK A01 T01300017  RH  046%=      5-min Rain = 0
KHA3 181118Z 18008KT 13/02 A2978 RMK A01 T01300017  RH  046%=      5-min Rain = 0
KHA3 181119Z 18006KT 13/02 A2978 RMK A01 T01300017  RH  046%=      5-min Rain = 0
KHA3 181120Z 19008KT 13/02 A2978 RMK A01 T01300017  RH  046%=      5-min Rain = 0
KHA3 181121Z 18008KT 13/02 A2978 RMK A01 T01300017  RH  046%=      5-min Rain = 0
KHA3 181122Z 18007KT 13/02 A2978 RMK A01 T01300018  RH  046%=      5-min Rain = 0
KHA3 181123Z 18008KT 13/02 A2978 RMK A01 T01300018  RH  046%=      5-min Rain = 0
KHA3 181124Z 19007KT 13/02 A2978 RMK A01 T01300018  RH  046%=      5-min Rain = 0
KHA3 181125Z 19007KT 13/02 A2978 RMK A01 T01300018  RH  047%=      5-min Rain = 0
KHA3 181126Z 18007KT 13/02 A2978 RMK A01 T01300019  RH  047%=      5-min Rain = 0
KHA3 181127Z 19006KT 13/02 A2978 RMK A01 T01290018  RH  047%=      5-min Rain = 0
KHA3 181128Z 19006KT 13/02 A2978 RMK A01 T01290019  RH  047%=      5-min Rain = 0
KHA3 181129Z 19006KT 13/02 A2979 RMK A01 T01280019  RH  047%=      5-min Rain = 0
KHA3 181130Z 19007KT 13/02 A2979 RMK A01 T01270019  RH  048%=      5-min Rain = 0
KHA3 181131Z 19006KT 13/02 A2979 RMK A01 T01280020  RH  048%=      5-min Rain = 0
KHA3 181132Z 19006KT 13/02 A2979 RMK A01 T01270019  RH  048%=      5-min Rain = 0
KHA3 181133Z 19007KT 13/02 A2979 RMK A01 T01270019  RH  048%=      5-min Rain = 0
KHA3 181134Z 19005KT 13/02 A2979 RMK A01 T01280020  RH  048%=      5-min Rain = 0
KHA3 181135Z 19006KT 13/02 A2979 RMK A01 T01270021  RH  048%=      5-min Rain = 0
KHA3 181136Z 18006KT 13/02 A2979 RMK A01 T01270021  RH  048%=      5-min Rain = 0
KHA3 181137Z 18005KT 13/02 A2979 RMK A01 T01280021  RH  048%=      5-min Rain = 0
KHA3 181138Z 18006KT 13/02 A2979 RMK A01 T01280021  RH  048%=      5-min Rain = 0
KHA3 181139Z 17006KT 13/02 A2979 RMK A01 T01280021  RH  048%=      5-min Rain = 0
KHA3 181140Z 17007KT 13/02 A2979 RMK A01 T01280021  RH  048%=      5-min Rain = 0
KHA3 181141Z 17006KT 13/02 A2979 RMK A01 T01290021  RH  048%=      5-min Rain = 0
KHA3 181142Z 16007KT 13/02 A2979 RMK A01 T01280021  RH  048%=      5-min Rain = 0
KHA3 181143Z 16006KT 13/02 A2979 RMK A01 T01280021  RH  048%=      5-min Rain = 0
KHA3 181144Z 16005KT 13/02 A2979 RMK A01 T01280021  RH  048%=      5-min Rain = 0
KHA3 181145Z 16006KT 13/02 A2979 RMK A01 T01280021  RH  048%=      5-min Rain = 0
KHA3 181146Z 17005KT 13/02 A2979 RMK A01 T01280021  RH  048%=      5-min Rain = 0
KHA3 181147Z 17005KT 13/02 A2979 RMK A01 T01280022  RH  048%=      5-min Rain = 0
KHA3 181148Z 16004KT 13/02 A2979 RMK A01 T01280022  RH  048%=      5-min Rain = 0
KHA3 181149Z 17005KT 13/02 A2979 RMK A01 T01270022  RH  048%=      5-min Rain = 0
KHA3 181150Z 16005KT 13/02 A2979 RMK A01 T01270022  RH  049%=      5-min Rain = 0
KHA3 181151Z 16004KT 13/02 A2979 RMK A01 T01270022  RH  049%=      5-min Rain = 0
KHA3 181152Z 16005KT 13/02 A2979 RMK A01 T01270022  RH  049%=      5-min Rain = 0
KHA3 181153Z 16005KT 13/02 A2979 RMK A01 T01270023  RH  049%=      5-min Rain = 0
KHA3 181154Z 15005KT 13/02 A2979 RMK A01 T01260023  RH  049%=      5-min Rain = 0
KHA3 181155Z 15005KT 13/02 A2979 RMK A01 T01260023  RH  049%=      5-min Rain = 0
KHA3 181156Z 15005KT 13/02 A2979 RMK A01 T01250023  RH  050%=      5-min Rain = 0
KHA3 181157Z 15005KT 13/02 A2979 RMK A01 T01250023  RH  050%=      5-min Rain = 0
KHA3 181158Z 15004KT 13/02 A2979 RMK A01 T01250023  RH  050%=      5-min Rain = 0
KHA3 181159Z 15003KT 13/02 A2979 RMK A01 T01250024  RH  050%=      5-min Rain = 0
KHA3 181200Z 14003KT 13/02 A2979 RMK A01 T01250024  RH  050%=      5-min Rain = 0
KHA3 181201Z 15002KT 13/02 A2979 RMK A01 T01260024  RH  050%=      5-min Rain = 0
KHA3 181202Z 13003KT 13/02 A2979 RMK A01 T01260024  RH  050%=      5-min Rain = 0
KHA3 181203Z 12003KT 13/02 A2979 RMK A01 T01250023  RH  050%=      5-min Rain = 0
KHA3 181204Z 14003KT 12/02 A2979 RMK A01 T01240024  RH  050%=      5-min Rain = 0
KHA3 181205Z 13003KT 12/02 A2979 RMK A01 T01230023  RH  051%=      5-min Rain = 0
KHA3 181206Z 13003KT 12/02 A2979 RMK A01 T01220024  RH  051%=      5-min Rain = 0
KHA3 181207Z 13003KT 12/02 A2979 RMK A01 T01220024  RH  051%=      5-min Rain = 0
KHA3 181208Z 13003KT 12/02 A2979 RMK A01 T01210024  RH  051%=      5-min Rain = 0
KHA3 181209Z 13003KT 12/02 A2979 RMK A01 T01200024  RH  052%=      5-min Rain = 0
KHA3 181210Z 14003KT 12/02 A2979 RMK A01 T01190024  RH  052%=      5-min Rain = 0
KHA3 181211Z 13003KT 12/02 A2979 RMK A01 T01190024  RH  052%=      5-min Rain = 0
KHA3 181212Z 13003KT 12/02 A2979 RMK A01 T01180024  RH  052%=      5-min Rain = 0
KHA3 181213Z 13003KT 12/02 A2979 RMK A01 T01180024  RH  053%=      5-min Rain = 0
KHA3 181214Z 12002KT 12/02 A2979 RMK A01 T01170023  RH  053%=      5-min Rain = 0
KHA3 181215Z 12002KT 12/02 A2979 RMK A01 T01150023  RH  053%=      5-min Rain = 0
KHA3 181216Z 11002KT 12/02 A2979 RMK A01 T01150023  RH  053%=      5-min Rain = 0
KHA3 181217Z 09001KT 11/02 A2979 RMK A01 T01140023  RH  054%=      5-min Rain = 0
KHA3 181218Z 12001KT 11/02 A2979 RMK A01 T01130022  RH  054%=      5-min Rain = 0
KHA3 181219Z 13001KT 11/02 A2979 RMK A01 T01120023  RH  054%=      5-min Rain = 0
KHA3 181220Z 15000KT 11/02 A2979 RMK A01 T01110023  RH  054%=      5-min Rain = 0
KHA3 181221Z 18000KT 11/02 A2979 RMK A01 T01110024  RH  055%=      5-min Rain = 0
KHA3 181222Z 21001KT 11/02 A2979 RMK A01 T01110024  RH  055%=      5-min Rain = 0
KHA3 181223Z 24002KT 11/02 A2979 RMK A01 T01110024  RH  055%=      5-min Rain = 0
KHA3 181224Z 21003KT 11/03 A2979 RMK A01 T01120025  RH  055%=      5-min Rain = 0
KHA3 181225Z 20003KT 11/03 A2979 RMK A01 T01140026  RH  055%=      5-min Rain = 0
KHA3 181226Z 18003KT 12/03 A2979 RMK A01 T01150028  RH  055%=      5-min Rain = 0
KHA3 181227Z 17004KT 12/03 A2979 RMK A01 T01170028  RH  055%=      5-min Rain = 0
KHA3 181228Z 18004KT 12/03 A2979 RMK A01 T01180029  RH  054%=      5-min Rain = 0
KHA3 181229Z 18004KT 12/03 A2979 RMK A01 T01180029  RH  054%=      5-min Rain = 0
KHA3 181230Z 18003KT 12/03 A2979 RMK A01 T01190030  RH  054%=      5-min Rain = 0
KHA3 181231Z 17004KT 12/03 A2979 RMK A01 T01180029  RH  054%=      5-min Rain = 0
KHA3 181232Z 17003KT 12/03 A2979 RMK A01 T01180029  RH  054%=      5-min Rain = 0
KHA3 181233Z 16002KT 12/03 A2979 RMK A01 T01180029  RH  054%=      5-min Rain = 0
KHA3 181234Z 14003KT 12/03 A2979 RMK A01 T01190029  RH  054%=      5-min Rain = 0
KHA3 181235Z 15004KT 12/03 A2979 RMK A01 T01180028  RH  054%=      5-min Rain = 0
KHA3 181236Z 15003KT 12/03 A2979 RMK A01 T01170028  RH  054%=      5-min Rain = 0
KHA3 181237Z 15004KT 12/03 A2979 RMK A01 T01160028  RH  055%=      5-min Rain = 0
KHA3 181238Z 14004KT 12/03 A2979 RMK A01 T01160028  RH  055%=      5-min Rain = 0
KHA3 181239Z 15004KT 12/03 A2979 RMK A01 T01160028  RH  055%=      5-min Rain = 0
KHA3 181240Z 16004KT 12/03 A2979 RMK A01 T01150028  RH  055%=      5-min Rain = 0
KHA3 181241Z 15004KT 12/03 A2979 RMK A01 T01150029  RH  055%=      5-min Rain = 0
KHA3 181242Z 14004KT 12/03 A2979 RMK A01 T01150028  RH  055%=      5-min Rain = 0
KHA3 181243Z 14004KT 11/03 A2979 RMK A01 T01140028  RH  055%=      5-min Rain = 0
KHA3 181244Z 14004KT 11/03 A2979 RMK A01 T01140029  RH  056%=      5-min Rain = 0
KHA3 181245Z 14004KT 11/03 A2979 RMK A01 T01140029  RH  056%=      5-min Rain = 0
KHA3 181246Z 14003KT 11/03 A2979 RMK A01 T01140028  RH  056%=      5-min Rain = 0
KHA3 181247Z 13003KT 11/03 A2979 RMK A01 T01130028  RH  056%=      5-min Rain = 0
KHA3 181248Z 13003KT 11/03 A2979 RMK A01 T01130028  RH  056%=      5-min Rain = 0
KHA3 181249Z 12003KT 11/03 A2979 RMK A01 T01120028  RH  056%=      5-min Rain = 0
KHA3 181250Z 12003KT 11/03 A2979 RMK A01 T01110028  RH  056%=      5-min Rain = 0
KHA3 181251Z 15002KT 11/03 A2979 RMK A01 T01110028  RH  056%=      5-min Rain = 0
KHA3 181252Z 12003KT 11/03 A2979 RMK A01 T01110028  RH  057%=      5-min Rain = 0
KHA3 181253Z 14002KT 11/03 A2979 RMK A01 T01110028  RH  057%=      5-min Rain = 0
KHA3 181254Z 15003KT 11/03 A2979 RMK A01 T01100028  RH  057%=      5-min Rain = 0
KHA3 181255Z 14002KT 11/03 A2979 RMK A01 T01090027  RH  057%=      5-min Rain = 0
KHA3 181256Z 14002KT 11/03 A2979 RMK A01 T01090027  RH  057%=      5-min Rain = 0
KHA3 181257Z 13002KT 11/03 A2979 RMK A01 T01090027  RH  057%=      5-min Rain = 0
KHA3 181258Z 13002KT 11/03 A2979 RMK A01 T01090027  RH  057%=      5-min Rain = 0
KHA3 181259Z 12002KT 11/03 A2979 RMK A01 T01080027  RH  057%=      5-min Rain = 0
KHA3 181300Z 12002KT 11/03 A2979 RMK A01 T01080027  RH  058%=      5-min Rain = 0
KHA3 181301Z 12002KT 11/03 A2979 RMK A01 T01080028  RH  058%=      5-min Rain = 0
KHA3 181302Z 12003KT 11/03 A2979 RMK A01 T01080028  RH  058%=      5-min Rain = 0
KHA3 181303Z 12003KT 11/03 A2979 RMK A01 T01080028  RH  058%=      5-min Rain = 0
KHA3 181304Z 12003KT 11/03 A2979 RMK A01 T01080028  RH  058%=      5-min Rain = 0
KHA3 181305Z 14004KT 11/03 A2979 RMK A01 T01080028  RH  058%=      5-min Rain = 0
KHA3 181306Z 14004KT 11/03 A2979 RMK A01 T01080029  RH  058%=      5-min Rain = 0
KHA3 181307Z 12004KT 11/03 A2979 RMK A01 T01100030  RH  058%=      5-min Rain = 0
KHA3 181308Z 13004KT 11/03 A2979 RMK A01 T01100030  RH  058%=      5-min Rain = 0
KHA3 181309Z 12004KT 11/03 A2979 RMK A01 T01100031  RH  058%=      5-min Rain = 0
KHA3 181310Z 13005KT 11/03 A2979 RMK A01 T01110030  RH  058%=      5-min Rain = 0
KHA3 181311Z 13005KT 11/03 A2979 RMK A01 T01100031  RH  058%=      5-min Rain = 0
KHA3 181312Z 13005KT 11/03 A2979 RMK A01 T01110032  RH  058%=      5-min Rain = 0
KHA3 181313Z 13005KT 11/03 A2979 RMK A01 T01120033  RH  058%=      5-min Rain = 0
KHA3 181314Z 13005KT 11/03 A2979 RMK A01 T01120033  RH  058%=      5-min Rain = 0
KHA3 181315Z 14005KT 11/03 A2979 RMK A01 T01130033  RH  058%=      5-min Rain = 0
KHA3 181316Z 14006KT 11/03 A2979 RMK A01 T01140034  RH  058%=      5-min Rain = 0
KHA3 181317Z 14005KT 12/03 A2979 RMK A01 T01150034  RH  058%=      5-min Rain = 0
KHA3 181318Z 15005KT 12/04 A2979 RMK A01 T01160035  RH  057%=      5-min Rain = 0
KHA3 181319Z 15005KT 12/04 A2979 RMK A01 T01180036  RH  057%=      5-min Rain = 0
KHA3 181320Z 15005KT 12/04 A2979 RMK A01 T01190036  RH  057%=      5-min Rain = 0
KHA3 181321Z 15005KT 12/04 A2979 RMK A01 T01210036  RH  056%=      5-min Rain = 0
KHA3 181322Z 15005KT 12/04 A2979 RMK A01 T01220036  RH  056%=      5-min Rain = 0
KHA3 181323Z 15005KT 12/04 A2979 RMK A01 T01220036  RH  056%=      5-min Rain = 0
KHA3 181324Z 15005KT 12/04 A2979 RMK A01 T01230037  RH  056%=      5-min Rain = 0
KHA3 181325Z 15006KT 12/04 A2979 RMK A01 T01230037  RH  056%=      5-min Rain = 0
KHA3 181326Z 16005KT 12/04 A2979 RMK A01 T01240038  RH  055%=      5-min Rain = 0
KHA3 181327Z 16005KT 12/04 A2979 RMK A01 T01240038  RH  055%=      5-min Rain = 0
KHA3 181328Z 16006KT 13/04 A2979 RMK A01 T01250038  RH  055%=      5-min Rain = 0
KHA3 181329Z 16005KT 13/04 A2979 RMK A01 T01260039  RH  055%=      5-min Rain = 0
KHA3 181330Z 16006KT 13/04 A2979 RMK A01 T01270040  RH  056%=      5-min Rain = 0
KHA3 181331Z 16006KT 13/04 A2979 RMK A01 T01270040  RH  055%=      5-min Rain = 0
KHA3 181332Z 16006KT 13/04 A2979 RMK A01 T01280042  RH  056%=      5-min Rain = 0
KHA3 181333Z 16006KT 13/04 A2979 RMK A01 T01290043  RH  056%=      5-min Rain = 0
KHA3 181334Z 16006KT 13/04 A2979 RMK A01 T01300044  RH  056%=      5-min Rain = 0
KHA3 181335Z 16006KT 13/04 A2979 RMK A01 T01310044  RH  055%=      5-min Rain = 0
KHA3 181336Z 16007KT 13/05 A2979 RMK A01 T01320045  RH  055%=      5-min Rain = 0
KHA3 181337Z 16008KT 13/05 A2979 RMK A01 T01340045  RH  055%=      5-min Rain = 0
KHA3 181338Z 16007KT 13/05 A2979 RMK A01 T01340046  RH  055%=      5-min Rain = 0
KHA3 181339Z 17007KT 14/05 A2979 RMK A01 T01350047  RH  055%=      5-min Rain = 0
KHA3 181340Z 16007KT 14/05 A2979 RMK A01 T01360048  RH  055%=      5-min Rain = 0
KHA3 181341Z 17007KT 14/05 A2979 RMK A01 T01370048  RH  055%=      5-min Rain = 0
KHA3 181342Z 16007KT 14/05 A2979 RMK A01 T01380048  RH  055%=      5-min Rain = 0
KHA3 181343Z 17008KT 14/05 A2979 RMK A01 T01390049  RH  055%=      5-min Rain = 0
KHA3 181344Z 17008KT 14/05 A2979 RMK A01 T01390049  RH  055%=      5-min Rain = 0
KHA3 181345Z 16009KT 14/05 A2979 RMK A01 T01400050  RH  055%=      5-min Rain = 0
KHA3 181346Z 17008KT 14/05 A2979 RMK A01 T01410051  RH  055%=      5-min Rain = 0
KHA3 181347Z 16009KT 14/05 A2979 RMK A01 T01420051  RH  054%=      5-min Rain = 0
KHA3 181348Z 16007KT 14/05 A2979 RMK A01 T01420051  RH  054%=      5-min Rain = 0
KHA3 181349Z 17007KT 14/05 A2979 RMK A01 T01430053  RH  055%=      5-min Rain = 0
KHA3 181350Z 17009KT 14/05 A2979 RMK A01 T01440053  RH  054%=      5-min Rain = 0
KHA3 181351Z 16009KT 14/05 A2979 RMK A01 T01440053  RH  054%=      5-min Rain = 0
KHA3 181352Z 17008KT 15/05 A2979 RMK A01 T01450053  RH  054%=      5-min Rain = 0
KHA3 181353Z 16009KT 15/05 A2979 RMK A01 T01450053  RH  054%=      5-min Rain = 0
KHA3 181354Z 17009KT 15/05 A2979 RMK A01 T01460054  RH  054%=      5-min Rain = 0
KHA3 181355Z 16007KT 15/05 A2979 RMK A01 T01460053  RH  054%=      5-min Rain = 0
KHA3 181356Z 15008KT 15/05 A2979 RMK A01 T01460054  RH  054%=      5-min Rain = 0
KHA3 181357Z 16007KT 15/05 A2979 RMK A01 T01470054  RH  054%=      5-min Rain = 0
KHA3 181358Z 15007KT 15/05 A2979 RMK A01 T01470054  RH  054%=      5-min Rain = 0
KHA3 181359Z 15008KT 15/06 A2979 RMK A01 T01480055  RH  054%=      5-min Rain = 0
KHA3 181400Z 15008KT 15/06 A2979 RMK A01 T01490055  RH  054%=      5-min Rain = 0
KHA3 181401Z 14007KT 15/06 A2979 RMK A01 T01490055  RH  053%=      5-min Rain = 0
KHA3 181402Z 15008KT 15/06 A2979 RMK A01 T01500056  RH  053%=      5-min Rain = 0
KHA3 181403Z 16009KT 15/06 A2979 RMK A01 T01510055  RH  053%=      5-min Rain = 0
KHA3 181404Z 15007KT 15/06 A2979 RMK A01 T01500055  RH  053%=      5-min Rain = 0
KHA3 181405Z 15009KT 15/06 A2979 RMK A01 T01510055  RH  053%=      5-min Rain = 0
KHA3 181406Z 15009KT 15/06 A298 RMK A01 T01500055  RH  053%=      5-min Rain = 0
KHA3 181407Z 14007KT 15/06 A298 RMK A01 T01500055  RH  053%=      5-min Rain = 0
KHA3 181408Z 15007KT 15/06 A298 RMK A01 T01510055  RH  053%=      5-min Rain = 0
KHA3 181409Z 15007KT 15/06 A298 RMK A01 T01520055  RH  053%=      5-min Rain = 0
KHA3 181410Z 15006KT 15/06 A298 RMK A01 T01520056  RH  053%=      5-min Rain = 0
KHA3 181411Z 15005KT 15/06 A298 RMK A01 T01530056  RH  052%=      5-min Rain = 0
KHA3 181412Z 16005KT 15/06 A298 RMK A01 T01540057  RH  052%=      5-min Rain = 0
KHA3 181413Z 15006KT 16/06 A298 RMK A01 T01550057  RH  052%=      5-min Rain = 0
KHA3 181414Z 15006KT 16/06 A298 RMK A01 T01560059  RH  052%=      5-min Rain = 0
KHA3 181415Z 15005KT 16/06 A298 RMK A01 T01570058  RH  052%=      5-min Rain = 0
KHA3 181416Z 15007KT 16/06 A298 RMK A01 T01570059  RH  052%=      5-min Rain = 0
KHA3 181417Z 16008KT 16/06 A298 RMK A01 T01570059  RH  052%=      5-min Rain = 0
KHA3 181418Z 15005KT 16/06 A298 RMK A01 T01580061  RH  052%=      5-min Rain = 0
KHA3 181419Z 16004KT 16/06 A298 RMK A01 T01600061  RH  052%=      5-min Rain = 0
KHA3 181420Z 15005KT 16/06 A298 RMK A01 T01600061  RH  052%=      5-min Rain = 0
KHA3 181421Z 16006KT 16/06 A298 RMK A01 T01610061  RH  052%=      5-min Rain = 0
KHA3 181422Z 16005KT 16/06 A298 RMK A01 T01620062  RH  052%=      5-min Rain = 0
KHA3 181423Z 16004KT 16/06 A298 RMK A01 T01620062  RH  051%=      5-min Rain = 0
KHA3 181424Z 16004KT 16/06 A298 RMK A01 T01630063  RH  052%=      5-min Rain = 0
KHA3 181425Z 16006KT 16/06 A298 RMK A01 T01640064  RH  051%=      5-min Rain = 0
KHA3 181426Z 17005KT 17/06 A298 RMK A01 T01650064  RH  051%=      5-min Rain = 0
KHA3 181427Z 17004KT 17/07 A298 RMK A01 T01650066  RH  052%=      5-min Rain = 0
KHA3 181428Z 18006KT 17/07 A298 RMK A01 T01660066  RH  052%=      5-min Rain = 0
KHA3 181429Z 18006KT 17/07 A298 RMK A01 T01670068  RH  052%=      5-min Rain = 0
KHA3 181430Z 18005KT 17/07 A298 RMK A01 T01680067  RH  051%=      5-min Rain = 0
KHA3 181431Z 17005KT 17/07 A298 RMK A01 T01690069  RH  052%=      5-min Rain = 0
KHA3 181432Z 17006KT 17/07 A298 RMK A01 T01720071  RH  052%=      5-min Rain = 0
KHA3 181433Z 18007KT 17/07 A298 RMK A01 T01730070  RH  051%=      5-min Rain = 0
KHA3 181434Z 18008KT 17/07 A298 RMK A01 T01730072  RH  051%=      5-min Rain = 0
KHA3 181435Z 18008KT 17/07 A2979 RMK A01 T01730072  RH  051%=      5-min Rain = 0
KHA3 181436Z 17007KT 17/07 A2979 RMK A01 T01720072  RH  051%=      5-min Rain = 0
KHA3 181437Z 17007KT 17/07 A2979 RMK A01 T01730072  RH  052%=      5-min Rain = 0
KHA3 181438Z 17009KT 17/07 A2979 RMK A01 T01730073  RH  052%=      5-min Rain = 0
KHA3 181439Z 17009KT 17/07 A2979 RMK A01 T01740073  RH  051%=      5-min Rain = 0
KHA3 181440Z 18010KT 17/07 A2979 RMK A01 T01740074  RH  052%=      5-min Rain = 0
KHA3 181441Z 17011KT 18/07 A2979 RMK A01 T01750074  RH  052%=      5-min Rain = 0
KHA3 181442Z 18012KT 18/08 A2979 RMK A01 T01760075  RH  052%=      5-min Rain = 0
KHA3 181443Z 18010KT 18/08 A2979 RMK A01 T01760075  RH  052%=      5-min Rain = 0
KHA3 181444Z 18009KT 18/08 A2979 RMK A01 T01760075  RH  052%=      5-min Rain = 0
KHA3 181445Z 20011KT 18/08 A2979 RMK A01 T01760076  RH  052%=      5-min Rain = 0
KHA3 181446Z 18011KT 18/08 A2979 RMK A01 T01760077  RH  052%=      5-min Rain = 0
KHA3 181447Z 19009KT 18/08 A2979 RMK A01 T01770078  RH  052%=      5-min Rain = 0
KHA3 181448Z 19011KT 18/08 A2979 RMK A01 T01790079  RH  052%=      5-min Rain = 0
KHA3 181449Z 19010KT 18/08 A2979 RMK A01 T01800079  RH  052%=      5-min Rain = 0
KHA3 181450Z 19012KT 18/08 A2979 RMK A01 T01800079  RH  052%=      5-min Rain = 0
KHA3 181451Z 19010KT 18/08 A2979 RMK A01 T01800079  RH  051%=      5-min Rain = 0
KHA3 181452Z 19010KT 18/08 A2979 RMK A01 T01800079  RH  051%=      5-min Rain = 0
KHA3 181453Z 20011KT 18/08 A2979 RMK A01 T01810080  RH  052%=      5-min Rain = 0
KHA3 181454Z 19011KT 18/08 A2979 RMK A01 T01820080  RH  052%=      5-min Rain = 0
KHA3 181455Z 19011KT 18/08 A2979 RMK A01 T01820081  RH  052%=      5-min Rain = 0
KHA3 181456Z 19010KT 18/08 A2979 RMK A01 T01820082  RH  052%=      5-min Rain = 0
KHA3 181457Z 18010KT 18/08 A2979 RMK A01 T01840083  RH  052%=      5-min Rain = 0
KHA3 181458Z 19010KT 19/08 A2979 RMK A01 T01860083  RH  051%=      5-min Rain = 0
KHA3 181459Z 19010KT 19/08 A2979 RMK A01 T01860083  RH  051%=      5-min Rain = 0
KHA3 181500Z 20010KT 19/08 A2979 RMK A01 T01860083  RH  051%=      5-min Rain = 0
KHA3 181501Z 19009KT 19/08 A2979 RMK A01 T01870084  RH  051%=      5-min Rain = 0
KHA3 181502Z 18010KT 19/09 A2979 RMK A01 T01890086  RH  051%=      5-min Rain = 0
KHA3 181503Z 19009KT 19/09 A2979 RMK A01 T01910086  RH  050%=      5-min Rain = 0
KHA3 181504Z 19009KT 19/09 A2979 RMK A01 T01920086  RH  050%=      5-min Rain = 0
KHA3 181505Z 20012KT 19/09 A2979 RMK A01 T01930087  RH  051%=      5-min Rain = 0
KHA3 181506Z 19013KT 19/09 A2979 RMK A01 T01930087  RH  050%=      5-min Rain = 0
KHA3 181507Z 18012KT 19/09 A2979 RMK A01 T01930088  RH  051%=      5-min Rain = 0
KHA3 181508Z 19012KT 19/09 A2979 RMK A01 T01930088  RH  051%=      5-min Rain = 0
KHA3 181509Z 18013KT 19/09 A2979 RMK A01 T01930088  RH  051%=      5-min Rain = 0
KHA3 181510Z 19010KT 19/09 A2979 RMK A01 T01930089  RH  051%=      5-min Rain = 0
KHA3 181511Z 18010KT 19/09 A2979 RMK A01 T01940090  RH  051%=      5-min Rain = 0
KHA3 181512Z 18012KT 20/09 A2979 RMK A01 T01950089  RH  050%=      5-min Rain = 0
KHA3 181513Z 18009KT 20/09 A2979 RMK A01 T01950089  RH  050%=      5-min Rain = 0
KHA3 181514Z 17014KT 20/09 A2979 RMK A01 T01960090  RH  050%=      5-min Rain = 0
KHA3 181515Z 18014KT 20/09 A2979 RMK A01 T01960090  RH  050%=      5-min Rain = 0
KHA3 181516Z 18014KT 20/09 A2979 RMK A01 T01960090  RH  050%=      5-min Rain = 0
KHA3 181517Z 19012KT 20/09 A2979 RMK A01 T01960090  RH  050%=      5-min Rain = 0
KHA3 181518Z 20014KT 20/09 A2979 RMK A01 T01950090  RH  051%=      5-min Rain = 0
KHA3 181519Z 19013KT 20/09 A2979 RMK A01 T01960091  RH  051%=      5-min Rain = 0
KHA3 181520Z 20013KT 20/09 A2979 RMK A01 T01960091  RH  051%=      5-min Rain = 0
KHA3 181521Z 19012KT 20/09 A2979 RMK A01 T01960091  RH  050%=      5-min Rain = 0
KHA3 181522Z 19012KT 20/09 A2979 RMK A01 T01970090  RH  050%=      5-min Rain = 0
KHA3 181523Z 18011KT 20/09 A2979 RMK A01 T01970091  RH  050%=      5-min Rain = 0
KHA3 181524Z 18012KT 20/09 A2979 RMK A01 T01980093  RH  051%=      5-min Rain = 0
KHA3 181525Z 19010KT 20/09 A2979 RMK A01 T02010094  RH  050%=      5-min Rain = 0
KHA3 181526Z 19011KT 20/09 A2979 RMK A01 T02030094  RH  049%=      5-min Rain = 0
KHA3 181527Z 18009KT 20/09 A2979 RMK A01 T02040093  RH  049%=      5-min Rain = 0
KHA3 181528Z 20010KT 20/09 A2979 RMK A01 T02040094  RH  049%=      5-min Rain = 0
KHA3 181529Z 20008KT 21/10 A2979 RMK A01 T02060095  RH  049%=      5-min Rain = 0
KHA3 181530Z 19011KT 21/09 A2979 RMK A01 T02070094  RH  048%=      5-min Rain = 0
KHA3 181531Z 20011KT 21/09 A2979 RMK A01 T02060094  RH  049%=      5-min Rain = 0
KHA3 181532Z 19010KT 21/09 A2979 RMK A01 T02060094  RH  049%=      5-min Rain = 0
KHA3 181533Z 19011KT 21/10 A2978 RMK A01 T02060096  RH  049%=      5-min Rain = 0
KHA3 181534Z 20013KT 21/10 A2978 RMK A01 T02070096  RH  049%=      5-min Rain = 0
KHA3 181535Z 21012KT 21/10 A2978 RMK A01 T02070095  RH  049%=      5-min Rain = 0
KHA3 181536Z 20010KT 21/10 A2978 RMK A01 T02060096  RH  049%=      5-min Rain = 0
KHA3 181537Z 19011KT 21/10 A2978 RMK A01 T02080096  RH  049%=      5-min Rain = 0
KHA3 181538Z 19011KT 21/10 A2978 RMK A01 T02080096  RH  049%=      5-min Rain = 0
KHA3 181539Z 19014KT 21/10 A2978 RMK A01 T02090097  RH  048%=      5-min Rain = 0
KHA3 181540Z 20010KT 21/10 A2978 RMK A01 T02090097  RH  049%=      5-min Rain = 0
KHA3 181541Z 19012KT 21/10 A2978 RMK A01 T02100097  RH  049%=      5-min Rain = 0
KHA3 181542Z 19010KT 21/10 A2978 RMK A01 T02110097  RH  048%=      5-min Rain = 0
KHA3 181543Z 18015KT 21/10 A2978 RMK A01 T02110097  RH  048%=      5-min Rain = 0
KHA3 181544Z 20013KT 21/10 A2978 RMK A01 T02120098  RH  048%=      5-min Rain = 0
KHA3 181545Z 20014KT 21/10 A2978 RMK A01 T02130097  RH  048%=      5-min Rain = 0
KHA3 181546Z 19012KT 21/10 A2978 RMK A01 T02130097  RH  048%=      5-min Rain = 0
KHA3 181547Z 19015KT 21/10 A2978 RMK A01 T02130097  RH  047%=      5-min Rain = 0
KHA3 181548Z 19012KT 21/10 A2978 RMK A01 T02120097  RH  048%=      5-min Rain = 0
KHA3 181549Z 19011KT 21/10 A2977 RMK A01 T02120097  RH  048%=      5-min Rain = 0
KHA3 181550Z 20011KT 21/10 A2977 RMK A01 T02130097  RH  048%=      5-min Rain = 0
KHA3 181551Z 19011KT 21/10 A2977 RMK A01 T02140097  RH  047%=      5-min Rain = 0
KHA3 181552Z 18011KT 22/10 A2977 RMK A01 T02150097  RH  047%=      5-min Rain = 0
KHA3 181553Z 20012KT 22/10 A2977 RMK A01 T02160098  RH  047%=      5-min Rain = 0
KHA3 181554Z 19012KT 22/10 A2977 RMK A01 T02160097  RH  047%=      5-min Rain = 0
KHA3 181555Z 18012KT 22/10 A2977 RMK A01 T02160098  RH  047%=      5-min Rain = 0
KHA3 181556Z 19016KT 22/10 A2977 RMK A01 T02160096  RH  046%=      5-min Rain = 0
KHA3 181557Z 19011KT 22/10 A2977 RMK A01 T02150095  RH  046%=      5-min Rain = 0
KHA3 181558Z 20014KT 22/10 A2977 RMK A01 T02150096  RH  047%=      5-min Rain = 0
KHA3 181559Z 20013KT 22/10 A2977 RMK A01 T02160096  RH  046%=      5-min Rain = 0
KHA3 181600Z 19011KT 22/10 A2977 RMK A01 T02170096  RH  046%=      5-min Rain = 0
KHA3 181601Z 18013KT 22/10 A2977 RMK A01 T02170096  RH  046%=      5-min Rain = 0
KHA3 181602Z 19012KT 22/10 A2977 RMK A01 T02170096  RH  046%=      5-min Rain = 0
KHA3 181603Z 18014KT 22/10 A2977 RMK A01 T02170095  RH  046%=      5-min Rain = 0
KHA3 181604Z 18013KT 22/10 A2977 RMK A01 T02170095  RH  046%=      5-min Rain = 0
KHA3 181605Z 18016KT 22/10 A2977 RMK A01 T02170096  RH  046%=      5-min Rain = 0
KHA3 181606Z 19015KT 22/10 A2977 RMK A01 T02180095  RH  045%=      5-min Rain = 0
KHA3 181607Z 18013KT 22/10 A2977 RMK A01 T02180095  RH  045%=      5-min Rain = 0
KHA3 181608Z 20012KT 22/10 A2977 RMK A01 T02190096  RH  045%=      5-min Rain = 0
KHA3 181609Z 20013KT 22/10 A2977 RMK A01 T02210096  RH  045%=      5-min Rain = 0
KHA3 181610Z 18014KT 22/10 A2977 RMK A01 T02220096  RH  045%=      5-min Rain = 0
KHA3 181611Z 19010KT 22/10 A2977 RMK A01 T02210096  RH  045%=      5-min Rain = 0
KHA3 181612Z 19012KT 22/10 A2977 RMK A01 T02200097  RH  045%=      5-min Rain = 0
KHA3 181613Z 19012G17KT 22/10 A2977 RMK A01 T02200097  RH  045%=      5-min Rain = 0
KHA3 181614Z 19012G18KT 22/10 A2977 RMK A01 T02210097  RH  045%=      5-min Rain = 0
KHA3 181615Z 18013KT 22/10 A2977 RMK A01 T02220097  RH  045%=      5-min Rain = 0
KHA3 181616Z 19014G19KT 22/10 A2976 RMK A01 T02230096  RH  044%=      5-min Rain = 0
KHA3 181617Z 19015KT 22/10 A2976 RMK A01 T02230096  RH  044%=      5-min Rain = 0
KHA3 181618Z 18015KT 22/10 A2976 RMK A01 T02230095  RH  044%=      5-min Rain = 0
KHA3 181619Z 18012KT 22/10 A2976 RMK A01 T02230097  RH  045%=      5-min Rain = 0
KHA3 181620Z 19014KT 23/10 A2976 RMK A01 T02250097  RH  044%=      5-min Rain = 0
KHA3 181621Z 18014KT 23/10 A2976 RMK A01 T02260096  RH  044%=      5-min Rain = 0
KHA3 181622Z 17015KT 23/10 A2976 RMK A01 T02260096  RH  044%=      5-min Rain = 0
KHA3 181623Z 17016KT 23/10 A2976 RMK A01 T02270096  RH  043%=      5-min Rain = 0
KHA3 181624Z 17013KT 23/10 A2976 RMK A01 T02270097  RH  044%=      5-min Rain = 0
KHA3 181625Z 18014KT 23/10 A2976 RMK A01 T02290097  RH  043%=      5-min Rain = 0
KHA3 181626Z 19016KT 23/10 A2976 RMK A01 T02290096  RH  043%=      5-min Rain = 0
KHA3 181627Z 18016KT 23/10 A2976 RMK A01 T02270096  RH  043%=      5-min Rain = 0
KHA3 181628Z 19016KT 23/10 A2976 RMK A01 T02270097  RH  043%=      5-min Rain = 0
KHA3 181629Z 18015KT 23/10 A2976 RMK A01 T02280097  RH  043%=      5-min Rain = 0
KHA3 181630Z 19015KT 23/10 A2975 RMK A01 T02290097  RH  043%=      5-min Rain = 0
KHA3 181631Z 19015KT 23/10 A2975 RMK A01 T02290097  RH  043%=      5-min Rain = 0
KHA3 181632Z 19014KT 23/10 A2975 RMK A01 T02300097  RH  043%=      5-min Rain = 0
KHA3 181633Z 18013KT 23/10 A2976 RMK A01 T02310100  RH  043%=      5-min Rain = 0
KHA3 181634Z 19014KT 23/10 A2975 RMK A01 T02340099  RH  042%=      5-min Rain = 0
KHA3 181635Z 18015KT 24/10 A2975 RMK A01 T02350099  RH  042%=      5-min Rain = 0
KHA3 181636Z 18013KT 24/10 A2975 RMK A01 T02360100  RH  042%=      5-min Rain = 0
KHA3 181637Z 18013KT 24/10 A2975 RMK A01 T02350101  RH  042%=      5-min Rain = 0
KHA3 181638Z 18012KT 24/10 A2975 RMK A01 T02360098  RH  042%=      5-min Rain = 0
KHA3 181639Z 18011KT 24/10 A2975 RMK A01 T02360100  RH  042%=      5-min Rain = 0
KHA3 181640Z 17014KT 24/10 A2975 RMK A01 T02370099  RH  042%=      5-min Rain = 0
KHA3 181641Z 18012KT 24/10 A2975 RMK A01 T02380099  RH  041%=      5-min Rain = 0
KHA3 181642Z 19014KT 24/10 A2975 RMK A01 T02410101  RH  041%=      5-min Rain = 0
KHA3 181643Z 18014KT 24/10 A2975 RMK A01 T02410099  RH  041%=      5-min Rain = 0
KHA3 181644Z 18012KT 24/10 A2975 RMK A01 T02390099  RH  041%=      5-min Rain = 0
KHA3 181645Z 18015KT 24/10 A2975 RMK A01 T02390099  RH  041%=      5-min Rain = 0
KHA3 181646Z 17015KT 24/10 A2975 RMK A01 T02400098  RH  041%=      5-min Rain = 0
KHA3 181647Z 17019KT 24/10 A2975 RMK A01 T02410097  RH  040%=      5-min Rain = 0
KHA3 181648Z 18015KT 24/10 A2975 RMK A01 T02410097  RH  040%=      5-min Rain = 0
KHA3 181649Z 18014KT 24/10 A2975 RMK A01 T02420099  RH  040%=      5-min Rain = 0
KHA3 181650Z 18013KT 24/10 A2975 RMK A01 T02420099  RH  040%=      5-min Rain = 0
KHA3 181651Z 20013KT 24/10 A2975 RMK A01 T02420100  RH  041%=      5-min Rain = 0
KHA3 181652Z 20013KT 24/10 A2975 RMK A01 T02420100  RH  040%=      5-min Rain = 0
KHA3 181653Z 18012KT 24/10 A2975 RMK A01 T02440101  RH  040%=      5-min Rain = 0
KHA3 181654Z 18012KT 25/10 A2975 RMK A01 T02470103  RH  040%=      5-min Rain = 0
KHA3 181655Z 17013KT 25/10 A2975 RMK A01 T02480102  RH  040%=      5-min Rain = 0
KHA3 181656Z 18012KT 25/10 A2975 RMK A01 T02460099  RH  040%=      5-min Rain = 0
KHA3 181657Z 18013KT 24/10 A2975 RMK A01 T02440101  RH  040%=      5-min Rain = 0
KHA3 181658Z 17014KT 25/10 A2975 RMK A01 T02450099  RH  040%=      5-min Rain = 0
KHA3 181659Z 16015KT 25/10 A2975 RMK A01 T02470100  RH  039%=      5-min Rain = 0
KHA3 181700Z 19014G20KT 25/10 A2975 RMK A01 T02480099  RH  039%=      5-min Rain = 0
KHA3 181701Z 19015KT 25/10 A2975 RMK A01 T02470096  RH  038%=      5-min Rain = 0
KHA3 181702Z 19016KT 25/10 A2975 RMK A01 T02470096  RH  039%=      5-min Rain = 0
KHA3 181703Z 18016KT 25/10 A2974 RMK A01 T02480096  RH  038%=      5-min Rain = 0
KHA3 181704Z 19015KT 25/10 A2974 RMK A01 T02470098  RH  039%=      5-min Rain = 0
KHA3 181705Z 19015KT 25/10 A2974 RMK A01 T02470098  RH  039%=      5-min Rain = 0
KHA3 181706Z 19016KT 25/10 A2974 RMK A01 T02480098  RH  039%=      5-min Rain = 0
KHA3 181707Z 19017KT 25/10 A2974 RMK A01 T02490097  RH  038%=      5-min Rain = 0
KHA3 181708Z 19016KT 25/10 A2974 RMK A01 T02480097  RH  038%=      5-min Rain = 0
KHA3 181709Z 19016KT 25/10 A2974 RMK A01 T02480097  RH  038%=      5-min Rain = 0
KHA3 181710Z 20016KT 25/10 A2974 RMK A01 T02500097  RH  038%=      5-min Rain = 0
KHA3 181711Z 19015KT 25/10 A2974 RMK A01 T02510096  RH  038%=      5-min Rain = 0
KHA3 181712Z 19017KT 25/10 A2974 RMK A01 T02510097  RH  038%=      5-min Rain = 0
KHA3 181713Z 19016G21KT 25/10 A2974 RMK A01 T02510097  RH  038%=      5-min Rain = 0
KHA3 181714Z 19018KT 25/10 A2974 RMK A01 T02520097  RH  038%=      5-min Rain = 0
KHA3 181715Z 20016G22KT 25/10 A2974 RMK A01 T02510097  RH  038%=      5-min Rain = 0
KHA3 181716Z 19020KT 25/10 A2974 RMK A01 T02520096  RH  037%=      5-min Rain = 0
KHA3 181717Z 18018KT 25/10 A2974 RMK A01 T02510096  RH  037%=      5-min Rain = 0
KHA3 181718Z 19015KT 25/10 A2974 RMK A01 T02490097  RH  038%=      5-min Rain = 0
KHA3 181719Z 18016KT 25/10 A2974 RMK A01 T02500097  RH  038%=      5-min Rain = 0
KHA3 181720Z 19014KT 25/10 A2974 RMK A01 T02510099  RH  038%=      5-min Rain = 0
KHA3 181721Z 19019KT 25/10 A2974 RMK A01 T02540099  RH  038%=      5-min Rain = 0
KHA3 181722Z 20015KT 25/10 A2974 RMK A01 T02540098  RH  037%=      5-min Rain = 0
KHA3 181723Z 20016KT 25/10 A2974 RMK A01 T02540099  RH  037%=      5-min Rain = 0
KHA3 181724Z 20016KT 26/10 A2974 RMK A01 T02550099  RH  037%=      5-min Rain = 0
KHA3 181725Z 17016KT 26/10 A2974 RMK A01 T02560100  RH  037%=      5-min Rain = 0
KHA3 181726Z 17016KT 26/10 A2974 RMK A01 T02570100  RH  037%=      5-min Rain = 0
KHA3 181727Z 17013KT 26/10 A2974 RMK A01 T02560099  RH  037%=      5-min Rain = 0
KHA3 181728Z 19016KT 26/10 A2974 RMK A01 T02550101  RH  038%=      5-min Rain = 0
KHA3 181729Z 20014KT 26/10 A2974 RMK A01 T02570100  RH  037%=      5-min Rain = 0
KHA3 181730Z 20016KT 26/10 A2974 RMK A01 T02570101  RH  037%=      5-min Rain = 0
KHA3 181731Z 21016KT 25/10 A2973 RMK A01 T02540099  RH  038%=      5-min Rain = 0
KHA3 181732Z 20015KT 25/10 A2973 RMK A01 T02500099  RH  038%=      5-min Rain = 0
KHA3 181733Z 19016G21KT 25/10 A2973 RMK A01 T02480100  RH  039%=      5-min Rain = 0
KHA3 181734Z 19015KT 25/10 A2973 RMK A01 T02490099  RH  039%=      5-min Rain = 0
KHA3 181735Z 19018KT 25/10 A2973 RMK A01 T02490099  RH  039%=      5-min Rain = 0
KHA3 181736Z 19016KT 25/10 A2973 RMK A01 T02480099  RH  039%=      5-min Rain = 0
KHA3 181737Z 19015KT 25/10 A2973 RMK A01 T02510101  RH  039%=      5-min Rain = 0
KHA3 181738Z 19016KT 25/10 A2973 RMK A01 T02530101  RH  038%=      5-min Rain = 0
KHA3 181739Z 20015KT 26/10 A2973 RMK A01 T02560101  RH  038%=      5-min Rain = 0
KHA3 181740Z 20014KT 26/10 A2973 RMK A01 T02560102  RH  038%=      5-min Rain = 0
KHA3 181741Z 17014KT 26/10 A2973 RMK A01 T02580103  RH  037%=      5-min Rain = 0
KHA3 181742Z 17015KT 26/10 A2973 RMK A01 T02590103  RH  037%=      5-min Rain = 0
KHA3 181743Z 17015KT 26/10 A2973 RMK A01 T02570101  RH  037%=      5-min Rain = 0
KHA3 181744Z 16017KT 25/10 A2973 RMK A01 T02530099  RH  038%=      5-min Rain = 0
KHA3 181745Z 17016KT 25/10 A2972 RMK A01 T02490099  RH  038%=      5-min Rain = 0
KHA3 181746Z 17015KT 25/10 A2972 RMK A01 T02470099  RH  039%=      5-min Rain = 0
KHA3 181747Z 17016KT 25/10 A2972 RMK A01 T02470099  RH  039%=      5-min Rain = 0
KHA3 181748Z 16017KT 25/10 A2972 RMK A01 T02470100  RH  039%=      5-min Rain = 0
KHA3 181749Z 17014KT 25/10 A2972 RMK A01 T02470100  RH  039%=      5-min Rain = 0
KHA3 181750Z 18014KT 25/10 A2972 RMK A01 T02490101  RH  039%=      5-min Rain = 0
KHA3 181751Z 18018KT 25/10 A2972 RMK A01 T02510100  RH  039%=      5-min Rain = 0
KHA3 181752Z 18017KT 25/10 A2972 RMK A01 T02510099  RH  038%=      5-min Rain = 0
KHA3 181753Z 17016KT 25/10 A2972 RMK A01 T02510100  RH  038%=      5-min Rain = 0
KHA3 181754Z 17017KT 25/10 A2972 RMK A01 T02540101  RH  038%=      5-min Rain = 0
KHA3 181755Z 18017KT 26/10 A2972 RMK A01 T02590102  RH  037%=      5-min Rain = 0
KHA3 181756Z 18018KT 26/10 A2972 RMK A01 T02610101  RH  036%=      5-min Rain = 0
KHA3 181757Z 18015KT 26/10 A2972 RMK A01 T02620101  RH  036%=      5-min Rain = 0
KHA3 181758Z 18014KT 27/10 A2972 RMK A01 T02650103  RH  036%=      5-min Rain = 0
KHA3 181759Z 18015KT 27/10 A2972 RMK A01 T02670102  RH  035%=      5-min Rain = 0
KHA3 181800Z 19016KT 27/10 A2971 RMK A01 T02660102  RH  036%=      5-min Rain = 0
KHA3 181801Z 19018KT 26/10 A2971 RMK A01 T02640100  RH  036%=      5-min Rain = 0
KHA3 181802Z 19017KT 26/10 A2971 RMK A01 T02630101  RH  036%=      5-min Rain = 0
KHA3 181803Z 18016KT 27/10 A2971 RMK A01 T02660101  RH  036%=      5-min Rain = 0
KHA3 181804Z 19015KT 27/10 A2971 RMK A01 T02660101  RH  035%=      5-min Rain = 0
KHA3 181805Z 19014KT 27/10 A2971 RMK A01 T02660101  RH  036%=      5-min Rain = 0
KHA3 181806Z 19014KT 27/10 A2971 RMK A01 T02660102  RH  036%=      5-min Rain = 0
KHA3 181807Z 18016G21KT 27/10 A2971 RMK A01 T02670103  RH  036%=      5-min Rain = 0
KHA3 181808Z 19016KT 27/10 A2971 RMK A01 T02690100  RH  035%=      5-min Rain = 0
KHA3 181809Z 18013KT 27/10 A2971 RMK A01 T02680101  RH  035%=      5-min Rain = 0
KHA3 181810Z 19014G21KT 27/10 A2971 RMK A01 T02690103  RH  035%=      5-min Rain = 0
KHA3 181811Z 20018KT 27/10 A2971 RMK A01 T02720102  RH  034%=      5-min Rain = 0
KHA3 181812Z 20015KT 27/10 A297 RMK A01 T02720101  RH  034%=      5-min Rain = 0
KHA3 181813Z 18014KT 27/10 A297 RMK A01 T02710102  RH  035%=      5-min Rain = 0
KHA3 181814Z 18016KT 28/11 A297 RMK A01 T02750105  RH  034%=      5-min Rain = 0
KHA3 181815Z 17016KT 28/10 A297 RMK A01 T02770102  RH  034%=      5-min Rain = 0
KHA3 181816Z 18016KT 28/10 A297 RMK A01 T02770102  RH  034%=      5-min Rain = 0
KHA3 181817Z 19015G21KT 27/10 A297 RMK A01 T02740101  RH  034%=      5-min Rain = 0
KHA3 181818Z 19016KT 27/10 A297 RMK A01 T02720101  RH  034%=      5-min Rain = 0
KHA3 181819Z 18015KT 27/10 A297 RMK A01 T02710102  RH  035%=      5-min Rain = 0
KHA3 181820Z 18014KT 27/10 A297 RMK A01 T02720103  RH  035%=      5-min Rain = 0
KHA3 181821Z 18015KT 28/11 A297 RMK A01 T02770105  RH  034%=      5-min Rain = 0
KHA3 181822Z 17015KT 28/10 A297 RMK A01 T02800104  RH  033%=      5-min Rain = 0
KHA3 181823Z 17014KT 28/10 A297 RMK A01 T02800103  RH  033%=      5-min Rain = 0
KHA3 181824Z 17016KT 28/10 A297 RMK A01 T02790104  RH  033%=      5-min Rain = 0
KHA3 181825Z 19017KT 28/10 A297 RMK A01 T02800103  RH  033%=      5-min Rain = 0
KHA3 181826Z 18017KT 28/10 A297 RMK A01 T02790102  RH  033%=      5-min Rain = 0
KHA3 181827Z 18016KT 28/10 A297 RMK A01 T02790101  RH  033%=      5-min Rain = 0
KHA3 181828Z 18015G20KT 28/10 A297 RMK A01 T02800101  RH  033%=      5-min Rain = 0
KHA3 181829Z 17016KT 28/10 A297 RMK A01 T02790101  RH  033%=      5-min Rain = 0
KHA3 181830Z 17014KT 28/10 A2969 RMK A01 T02790104  RH  033%=      5-min Rain = 0
KHA3 181831Z 18015KT 28/10 A2969 RMK A01 T02800101  RH  033%=      5-min Rain = 0
KHA3 181832Z 18012KT 28/10 A2969 RMK A01 T02780102  RH  033%=      5-min Rain = 0
KHA3 181833Z 18013KT 28/10 A2969 RMK A01 T02780103  RH  034%=      5-min Rain = 0
KHA3 181834Z 17017KT 28/10 A2969 RMK A01 T02790102  RH  033%=      5-min Rain = 0
KHA3 181835Z 18016KT 28/10 A2969 RMK A01 T02810102  RH  033%=      5-min Rain = 0
KHA3 181836Z 18014KT 28/10 A2969 RMK A01 T02800101  RH  033%=      5-min Rain = 0
KHA3 181837Z 17015KT 28/10 A2968 RMK A01 T02790102  RH  033%=      5-min Rain = 0
KHA3 181838Z 18014KT 28/10 A2968 RMK A01 T02800103  RH  033%=      5-min Rain = 0
KHA3 181839Z 18014KT 28/10 A2968 RMK A01 T02830104  RH  033%=      5-min Rain = 0
KHA3 181840Z 16014KT 28/11 A2968 RMK A01 T02840105  RH  033%=      5-min Rain = 0
KHA3 181841Z 16014KT 29/11 A2968 RMK A01 T02860105  RH  032%=      5-min Rain = 0
KHA3 181842Z 15016KT 29/11 A2968 RMK A01 T02860105  RH  032%=      5-min Rain = 0
KHA3 181843Z 16015KT 29/10 A2968 RMK A01 T02860104  RH  032%=      5-min Rain = 0
KHA3 181844Z 16015G22KT 29/11 A2968 RMK A01 T02870106  RH  032%=      5-min Rain = 0
KHA3 181845Z 18022KT 29/11 A2967 RMK A01 T02890105  RH  032%=      5-min Rain = 0
KHA3 181846Z 18017KT 29/10 A2967 RMK A01 T02860101  RH  032%=      5-min Rain = 0
KHA3 181847Z 17015KT 28/10 A2967 RMK A01 T02840103  RH  032%=      5-min Rain = 0
KHA3 181848Z 17018KT 28/10 A2967 RMK A01 T02830103  RH  033%=      5-min Rain = 0
KHA3 181849Z 17019KT 29/10 A2967 RMK A01 T02850103  RH  032%=      5-min Rain = 0
KHA3 181850Z 17018KT 29/11 A2967 RMK A01 T02870105  RH  032%=      5-min Rain = 0
KHA3 181851Z 17018KT 29/10 A2967 RMK A01 T02880104  RH  032%=      5-min Rain = 0
KHA3 181852Z 16017KT 29/10 A2967 RMK A01 T02880104  RH  032%=      5-min Rain = 0
KHA3 181853Z 16016KT 29/10 A2967 RMK A01 T02870103  RH  032%=      5-min Rain = 0
KHA3 181854Z 16013KT 29/11 A2967 RMK A01 T02870106  RH  032%=      5-min Rain = 0
KHA3 181855Z 15017KT 29/11 A2966 RMK A01 T02900106  RH  032%=      5-min Rain = 0
KHA3 181856Z 17015G20KT 29/10 A2966 RMK A01 T02910104  RH  031%=      5-min Rain = 0
KHA3 181857Z 17018KT 29/11 A2966 RMK A01 T02900106  RH  032%=      5-min Rain = 0
KHA3 181858Z 17019KT 29/10 A2966 RMK A01 T02910104  RH  031%=      5-min Rain = 0
KHA3 181859Z 18017KT 29/10 A2966 RMK A01 T02880102  RH  032%=      5-min Rain = 0
KHA3 181900Z 18015KT 29/10 A2966 RMK A01 T02860103  RH  032%=      5-min Rain = 0
KHA3 181901Z 18013KT 29/11 A2966 RMK A01 T02870105  RH  032%=      5-min Rain = 0
KHA3 181902Z 17017KT 29/11 A2966 RMK A01 T02930108  RH  032%=      5-min Rain = 0
KHA3 181903Z 17017G22KT 30/11 A2966 RMK A01 T02950105  RH  031%=      5-min Rain = 0
KHA3 181904Z 16018KT 29/10 A2966 RMK A01 T02920103  RH  031%=      5-min Rain = 0
KHA3 181905Z 18017KT 29/10 A2966 RMK A01 T02900104  RH  031%=      5-min Rain = 0
KHA3 181906Z 17016KT 29/11 A2966 RMK A01 T02910106  RH  032%=      5-min Rain = 0
KHA3 181907Z 19015KT 29/11 A2965 RMK A01 T02940107  RH  031%=      5-min Rain = 0
KHA3 181908Z 17016KT 30/11 A2965 RMK A01 T02950106  RH  031%=      5-min Rain = 0
KHA3 181909Z 19018KT 30/11 A2965 RMK A01 T02950105  RH  031%=      5-min Rain = 0
KHA3 181910Z 16016KT 30/11 A2965 RMK A01 T02950107  RH  031%=      5-min Rain = 0
KHA3 181911Z 17018KT 30/11 A2965 RMK A01 T02980106  RH  031%=      5-min Rain = 0
KHA3 181912Z 17016G22KT 30/10 A2965 RMK A01 T02960104  RH  030%=      5-min Rain = 0
KHA3 181913Z 17015KT 29/11 A2965 RMK A01 T02930105  RH  031%=      5-min Rain = 0
KHA3 181914Z 17017KT 29/11 A2965 RMK A01 T02940105  RH  031%=      5-min Rain = 0
KHA3 181915Z 18015KT 30/11 A2965 RMK A01 T02950106  RH  031%=      5-min Rain = 0
KHA3 181916Z 18015KT 30/11 A2965 RMK A01 T02980106  RH  030%=      5-min Rain = 0
KHA3 181917Z 19017KT 30/11 A2965 RMK A01 T02990106  RH  030%=      5-min Rain = 0
KHA3 181918Z 19018KT 30/11 A2964 RMK A01 T03000106  RH  030%=      5-min Rain = 0
KHA3 181919Z 18019KT 30/11 A2964 RMK A01 T03000106  RH  030%=      5-min Rain = 0
KHA3 181920Z 18016KT 30/11 A2964 RMK A01 T03000107  RH  030%=      5-min Rain = 0
KHA3 181921Z 17014G20KT 30/11 A2964 RMK A01 T03020108  RH  030%=      5-min Rain = 0
KHA3 181922Z 17019KT 30/11 A2964 RMK A01 T03040108  RH  030%=      5-min Rain = 0
KHA3 181923Z 18020KT 30/11 A2964 RMK A01 T03040106  RH  029%=      5-min Rain = 0
KHA3 181924Z 18019KT 30/11 A2964 RMK A01 T03010105  RH  030%=      5-min Rain = 0
KHA3 181925Z 17018G24KT 30/11 A2964 RMK A01 T03000107  RH  030%=      5-min Rain = 0
KHA3 181926Z 18020KT 30/11 A2964 RMK A01 T03020106  RH  030%=      5-min Rain = 0
KHA3 181927Z 17016KT 30/11 A2964 RMK A01 T03010105  RH  030%=      5-min Rain = 0
KHA3 181928Z 17016KT 30/11 A2964 RMK A01 T03000107  RH  030%=      5-min Rain = 0
KHA3 181929Z 19016KT 30/11 A2964 RMK A01 T03020108  RH  030%=      5-min Rain = 0
KHA3 181930Z 17013KT 30/11 A2964 RMK A01 T03040108  RH  030%=      5-min Rain = 0
KHA3 181931Z 18012KT 31/11 A2964 RMK A01 T03050108  RH  030%=      5-min Rain = 0
KHA3 181932Z 19017G22KT 31/11 A2964 RMK A01 T03060108  RH  030%=      5-min Rain = 0
KHA3 181933Z 17018KT 31/11 A2964 RMK A01 T03050107  RH  030%=      5-min Rain = 0
KHA3 181934Z 18017KT 30/11 A2964 RMK A01 T03020107  RH  030%=      5-min Rain = 0
KHA3 181935Z 17017KT 30/11 A2964 RMK A01 T03000106  RH  030%=      5-min Rain = 0
KHA3 181936Z 18015KT 30/11 A2963 RMK A01 T02950105  RH  031%=      5-min Rain = 0
KHA3 181937Z 18013G19KT 29/11 A2963 RMK A01 T02910105  RH  031%=      5-min Rain = 0
KHA3 181938Z 18016KT 29/11 A2963 RMK A01 T02900105  RH  032%=      5-min Rain = 0
KHA3 181939Z 19015KT 29/11 A2963 RMK A01 T02900105  RH  032%=      5-min Rain = 0
KHA3 181940Z 18015KT 29/11 A2963 RMK A01 T02920105  RH  031%=      5-min Rain = 0
KHA3 181941Z 16012KT 29/11 A2963 RMK A01 T02940108  RH  032%=      5-min Rain = 0
KHA3 181942Z 16012KT 30/11 A2963 RMK A01 T02970109  RH  031%=      5-min Rain = 0
KHA3 181943Z 17013G19KT 30/11 A2963 RMK A01 T02990109  RH  031%=      5-min Rain = 0
KHA3 181944Z 18018KT 30/11 A2963 RMK A01 T03010108  RH  030%=      5-min Rain = 0
KHA3 181945Z 17018KT 30/11 A2963 RMK A01 T03040108  RH  030%=      5-min Rain = 0
KHA3 181946Z 17018KT 31/11 A2963 RMK A01 T03050109  RH  030%=      5-min Rain = 0
KHA3 181947Z 17018KT 31/11 A2963 RMK A01 T03070110  RH  030%=      5-min Rain = 0
KHA3 181948Z 17019KT 31/11 A2962 RMK A01 T03080110  RH  029%=      5-min Rain = 0
KHA3 181949Z 16016KT 31/11 A2962 RMK A01 T03080109  RH  029%=      5-min Rain = 0
KHA3 181950Z 17020G26KT 31/11 A2962 RMK A01 T03080111  RH  030%=      5-min Rain = 0
KHA3 181951Z 17017G23KT 31/11 A2962 RMK A01 T03080109  RH  029%=      5-min Rain = 0
KHA3 181952Z 17016KT 31/11 A2962 RMK A01 T03090111  RH  029%=      5-min Rain = 0
KHA3 181953Z 18020KT 31/11 A2962 RMK A01 T03110109  RH  029%=      5-min Rain = 0
KHA3 181954Z 18019KT 31/11 A2962 RMK A01 T03100108  RH  029%=      5-min Rain = 0
KHA3 181955Z 18017KT 31/11 A2962 RMK A01 T03080107  RH  029%=      5-min Rain = 0
KHA3 181956Z 18019G24KT 31/11 A2962 RMK A01 T03060108  RH  029%=      5-min Rain = 0
KHA3 181957Z 18015KT 31/11 A2962 RMK A01 T03070110  RH  030%=      5-min Rain = 0
KHA3 181958Z 19017KT 31/11 A2962 RMK A01 T03090109  RH  029%=      5-min Rain = 0
KHA3 181959Z 19016KT 31/11 A2962 RMK A01 T03080110  RH  029%=      5-min Rain = 0
KHA3 182000Z 17016KT 31/11 A2962 RMK A01 T03080110  RH  029%=      5-min Rain = 0
KHA3 182001Z 17017KT 31/11 A2962 RMK A01 T03110112  RH  029%=      5-min Rain = 0
KHA3 182002Z 17018KT 31/11 A2962 RMK A01 T03120109  RH  029%=      5-min Rain = 0
KHA3 182003Z 17016KT 31/11 A2962 RMK A01 T03090111  RH  029%=      5-min Rain = 0
KHA3 182004Z 18016KT 31/11 A2962 RMK A01 T03110110  RH  029%=      5-min Rain = 0
KHA3 182005Z 18014KT 31/11 A2962 RMK A01 T03110110  RH  029%=      5-min Rain = 0
KHA3 182006Z 17013KT 31/11 A2962 RMK A01 T03120112  RH  029%=      5-min Rain = 0
KHA3 182007Z 17014G19KT 31/11 A2962 RMK A01 T03130112  RH  029%=      5-min Rain = 0
KHA3 182008Z 17016G22KT 31/11 A2962 RMK A01 T03140113  RH  029%=      5-min Rain = 0
KHA3 182009Z 18020G25KT 32/11 A2961 RMK A01 T03150112  RH  029%=      5-min Rain = 0
KHA3 182010Z 18018KT 31/11 A2962 RMK A01 T03130111  RH  029%=      5-min Rain = 0
KHA3 182011Z 17014KT 31/11 A2961 RMK A01 T03120110  RH  029%=      5-min Rain = 0
KHA3 182012Z 17015KT 31/11 A2961 RMK A01 T03120110  RH  029%=      5-min Rain = 0
KHA3 182013Z 18020KT 31/11 A2961 RMK A01 T03110109  RH  029%=      5-min Rain = 0
KHA3 182014Z 19019KT 31/11 A2961 RMK A01 T03100108  RH  029%=      5-min Rain = 0
KHA3 182015Z 19019G24KT 31/11 A2961 RMK A01 T03090109  RH  029%=      5-min Rain = 0
KHA3 182016Z 17020KT 31/11 A2961 RMK A01 T03120109  RH  029%=      5-min Rain = 0
KHA3 182017Z 17018KT 31/11 A2961 RMK A01 T03110109  RH  029%=      5-min Rain = 0
KHA3 182018Z 19017KT 31/11 A2961 RMK A01 T03110110  RH  029%=      5-min Rain = 0
KHA3 182019Z 20016KT 31/11 A2961 RMK A01 T03120109  RH  029%=      5-min Rain = 0
KHA3 182020Z 19016KT 31/11 A2961 RMK A01 T03130111  RH  029%=      5-min Rain = 0
KHA3 182021Z 18014KT 32/11 A2961 RMK A01 T03150112  RH  029%=      5-min Rain = 0
KHA3 182022Z 17017G26KT 32/11 A2961 RMK A01 T03180114  RH  029%=      5-min Rain = 0
KHA3 182023Z 17023KT 32/11 A2961 RMK A01 T03190112  RH  028%=      5-min Rain = 0
KHA3 182024Z 17022KT 32/11 A2961 RMK A01 T03170110  RH  028%=      5-min Rain = 0
KHA3 182025Z 17019KT 31/11 A2961 RMK A01 T03140111  RH  029%=      5-min Rain = 0
KHA3 182026Z 18019KT 31/11 A2961 RMK A01 T03130110  RH  029%=      5-min Rain = 0
KHA3 182027Z 17021KT 31/11 A2961 RMK A01 T03090108  RH  029%=      5-min Rain = 0
KHA3 182028Z 18021KT 31/11 A2961 RMK A01 T03050108  RH  030%=      5-min Rain = 0
KHA3 182029Z 20020KT 30/11 A296 RMK A01 T03030108  RH  030%=      5-min Rain = 0
KHA3 182030Z 19016KT 30/11 A296 RMK A01 T03020108  RH  030%=      5-min Rain = 0
KHA3 182031Z 19013KT 30/11 A2961 RMK A01 T03010109  RH  031%=      5-min Rain = 0
KHA3 182032Z 19016KT 30/11 A2961 RMK A01 T03040111  RH  030%=      5-min Rain = 0
KHA3 182033Z 18020G28KT 31/11 A296 RMK A01 T03080109  RH  029%=      5-min Rain = 0
KHA3 182034Z 18022KT 31/11 A296 RMK A01 T03100110  RH  029%=      5-min Rain = 0
KHA3 182035Z 18019KT 31/11 A296 RMK A01 T03120110  RH  029%=      5-min Rain = 0
KHA3 182036Z 21016KT 31/11 A296 RMK A01 T03140112  RH  029%=      5-min Rain = 0
KHA3 182037Z 21019KT 32/11 A296 RMK A01 T03160111  RH  028%=      5-min Rain = 0
KHA3 182038Z 20016KT 32/11 A296 RMK A01 T03170111  RH  028%=      5-min Rain = 0
KHA3 182039Z 20015KT 32/11 A296 RMK A01 T03190114  RH  029%=      5-min Rain = 0
KHA3 182040Z 18018KT 32/11 A296 RMK A01 T03210113  RH  028%=      5-min Rain = 0
KHA3 182041Z 19019KT 32/11 A296 RMK A01 T03190112  RH  028%=      5-min Rain = 0
KHA3 182042Z 19018KT 31/11 A296 RMK A01 T03140109  RH  028%=      5-min Rain = 0
KHA3 182043Z 19019KT 31/11 A296 RMK A01 T03090110  RH  029%=      5-min Rain = 0
KHA3 182044Z 19018KT 31/11 A296 RMK A01 T03070108  RH  029%=      5-min Rain = 0
KHA3 182045Z 19018G23KT 31/11 A296 RMK A01 T03050109  RH  030%=      5-min Rain = 0
KHA3 182046Z 19016KT 31/11 A296 RMK A01 T03050111  RH  030%=      5-min Rain = 0
KHA3 182047Z 18017G22KT 31/11 A296 RMK A01 T03050110  RH  030%=      5-min Rain = 0
KHA3 182048Z 18014KT 30/11 A2961 RMK A01 T03030110  RH  030%=      5-min Rain = 0
KHA3 182049Z 17018KT 30/11 A296 RMK A01 T03030110  RH  030%=      5-min Rain = 0
KHA3 182050Z 17017KT 30/11 A296 RMK A01 T03030109  RH  030%=      5-min Rain = 0
KHA3 182051Z 18016KT 30/11 A296 RMK A01 T03040111  RH  030%=      5-min Rain = 0
KHA3 182052Z 19014G19KT 31/11 A296 RMK A01 T03090114  RH  030%=      5-min Rain = 0
KHA3 182053Z 19021KT 31/11 A296 RMK A01 T03140114  RH  029%=      5-min Rain = 0
KHA3 182054Z 18021KT 31/11 A296 RMK A01 T03140114  RH  029%=      5-min Rain = 0
KHA3 182055Z 18020KT 31/11 A296 RMK A01 T03110113  RH  030%=      5-min Rain = 0
KHA3 182056Z 18019KT 31/11 A296 RMK A01 T03090112  RH  030%=      5-min Rain = 0
KHA3 182057Z 19018KT 31/11 A296 RMK A01 T03090113  RH  030%=      5-min Rain = 0
KHA3 182058Z 19016KT 31/11 A296 RMK A01 T03120114  RH  030%=      5-min Rain = 0
KHA3 182059Z 17017KT 31/11 A296 RMK A01 T03140114  RH  029%=      5-min Rain = 0
KHA3 182100Z 19020G26KT 31/11 A296 RMK A01 T03120113  RH  029%=      5-min Rain = 0
KHA3 182101Z 19022KT 31/11 A296 RMK A01 T03080111  RH  030%=      5-min Rain = 0
KHA3 182102Z 19019G24KT 31/11 A296 RMK A01 T03050111  RH  030%=      5-min Rain = 0
KHA3 182103Z 19015G20KT 30/11 A296 RMK A01 T03040112  RH  030%=      5-min Rain = 0
KHA3 182104Z 18019KT 30/11 A296 RMK A01 T03040112  RH  031%=      5-min Rain = 0
KHA3 182105Z 18014KT 30/11 A296 RMK A01 T03040112  RH  031%=      5-min Rain = 0
KHA3 182106Z 18015KT 30/11 A296 RMK A01 T03040114  RH  031%=      5-min Rain = 0
KHA3 182107Z 20018KT 30/11 A296 RMK A01 T03040113  RH  031%=      5-min Rain = 0
KHA3 182108Z 20018G23KT 30/11 A296 RMK A01 T03040113  RH  031%=      5-min Rain = 0
KHA3 182109Z 19017KT 30/11 A296 RMK A01 T03040112  RH  031%=      5-min Rain = 0
KHA3 182110Z 19016KT 30/11 A296 RMK A01 T03040112  RH  031%=      5-min Rain = 0
KHA3 182111Z 20017KT 30/11 A296 RMK A01 T03040112  RH  031%=      5-min Rain = 0
KHA3 182112Z 20015KT 30/11 A296 RMK A01 T03040112  RH  031%=      5-min Rain = 0
KHA3 182113Z 19013KT 30/11 A296 RMK A01 T03040113  RH  031%=      5-min Rain = 0
KHA3 182114Z 18014KT 30/11 A296 RMK A01 T03040112  RH  031%=      5-min Rain = 0
KHA3 182115Z 17014KT 31/11 A296 RMK A01 T03070114  RH  030%=      5-min Rain = 0
KHA3 182116Z 18015KT 31/12 A296 RMK A01 T03120115  RH  030%=      5-min Rain = 0
KHA3 182117Z 19017KT 32/12 A296 RMK A01 T03160115  RH  029%=      5-min Rain = 0
KHA3 182118Z 19014KT 32/12 A296 RMK A01 T03180117  RH  029%=      5-min Rain = 0
KHA3 182119Z 18014G21KT 32/12 A296 RMK A01 T03220119  RH  029%=      5-min Rain = 0
KHA3 182120Z 18016KT 33/12 A2959 RMK A01 T03250117  RH  028%=      5-min Rain = 0
KHA3 182121Z 18016KT 33/12 A2959 RMK A01 T03250117  RH  028%=      5-min Rain = 0
KHA3 182122Z 17015KT 32/12 A2959 RMK A01 T03240115  RH  028%=      5-min Rain = 0
KHA3 182123Z 18016KT 32/12 A2959 RMK A01 T03220115  RH  028%=      5-min Rain = 0
KHA3 182124Z 18014KT 32/12 A2959 RMK A01 T03220115  RH  028%=      5-min Rain = 0
KHA3 182125Z 18015KT 32/12 A2959 RMK A01 T03220116  RH  028%=      5-min Rain = 0
KHA3 182126Z 19015G20KT 32/12 A2959 RMK A01 T03240116  RH  028%=      5-min Rain = 0
KHA3 182127Z 18017KT 33/12 A2959 RMK A01 T03250116  RH  028%=      5-min Rain = 0
KHA3 182128Z 18018KT 32/11 A2959 RMK A01 T03230114  RH  028%=      5-min Rain = 0
KHA3 182129Z 18015KT 32/11 A2959 RMK A01 T03200114  RH  028%=      5-min Rain = 0
KHA3 182130Z 16013KT 32/12 A2959 RMK A01 T03200115  RH  029%=      5-min Rain = 0
KHA3 182131Z 18013KT 32/12 A2959 RMK A01 T03200115  RH  029%=      5-min Rain = 0
KHA3 182132Z 18013KT 32/11 A2959 RMK A01 T03200114  RH  028%=      5-min Rain = 0
KHA3 182133Z 19018KT 32/12 A2959 RMK A01 T03190115  RH  029%=      5-min Rain = 0
KHA3 182134Z 19020KT 32/11 A2959 RMK A01 T03190114  RH  028%=      5-min Rain = 0
KHA3 182135Z 20019KT 32/11 A2959 RMK A01 T03170113  RH  029%=      5-min Rain = 0
KHA3 182136Z 21016KT 32/11 A2959 RMK A01 T03170114  RH  029%=      5-min Rain = 0
KHA3 182137Z 21019KT 32/12 A2959 RMK A01 T03180115  RH  029%=      5-min Rain = 0
KHA3 182138Z 20018KT 32/11 A2959 RMK A01 T03190114  RH  029%=      5-min Rain = 0
KHA3 182139Z 20018G23KT 32/12 A2959 RMK A01 T03180116  RH  029%=      5-min Rain = 0
KHA3 182140Z 20023KT 32/12 A2959 RMK A01 T03170116  RH  029%=      5-min Rain = 0
KHA3 182141Z 21020KT 32/12 A2959 RMK A01 T03160115  RH  029%=      5-min Rain = 0
KHA3 182142Z 21016KT 32/12 A2959 RMK A01 T03150116  RH  029%=      5-min Rain = 0
KHA3 182143Z 21014KT 32/12 A2959 RMK A01 T03150115  RH  029%=      5-min Rain = 0
KHA3 182144Z 20015KT 32/12 A2959 RMK A01 T03150117  RH  030%=      5-min Rain = 0
KHA3 182145Z 19015KT 32/12 A2959 RMK A01 T03160116  RH  029%=      5-min Rain = 0
KHA3 182146Z 20016KT 32/12 A2959 RMK A01 T03150116  RH  029%=      5-min Rain = 0
KHA3 182147Z 19013KT 31/12 A2959 RMK A01 T03140115  RH  029%=      5-min Rain = 0
KHA3 182148Z 18013KT 31/12 A2959 RMK A01 T03140116  RH  030%=      5-min Rain = 0
KHA3 182149Z 18012KT 32/12 A2959 RMK A01 T03150116  RH  030%=      5-min Rain = 0
KHA3 182150Z 18013KT 32/12 A2959 RMK A01 T03160116  RH  029%=      5-min Rain = 0
KHA3 182151Z 17015KT 32/12 A2959 RMK A01 T03160115  RH  029%=      5-min Rain = 0
KHA3 182152Z 18015KT 32/12 A2958 RMK A01 T03160116  RH  029%=      5-min Rain = 0
KHA3 182153Z 18016KT 32/12 A2958 RMK A01 T03170116  RH  029%=      5-min Rain = 0
KHA3 182154Z 19016KT 32/12 A2958 RMK A01 T03160116  RH  029%=      5-min Rain = 0
KHA3 182155Z 19016KT 32/12 A2958 RMK A01 T03160117  RH  030%=      5-min Rain = 0
KHA3 182156Z 19017KT 32/12 A2958 RMK A01 T03170116  RH  029%=      5-min Rain = 0
KHA3 182157Z 18014KT 32/12 A2958 RMK A01 T03160117  RH  030%=      5-min Rain = 0
KHA3 182158Z 17014KT 32/12 A2958 RMK A01 T03150117  RH  030%=      5-min Rain = 0
KHA3 182159Z 17017KT 32/12 A2958 RMK A01 T03160116  RH  029%=      5-min Rain = 0
KHA3 182200Z 18014KT 32/12 A2958 RMK A01 T03160117  RH  029%=      5-min Rain = 0
KHA3 182201Z 19014KT 32/12 A2958 RMK A01 T03160117  RH  030%=      5-min Rain = 0
KHA3 182202Z 17014KT 32/12 A2958 RMK A01 T03160117  RH  030%=      5-min Rain = 0
KHA3 182203Z 17013KT 32/12 A2958 RMK A01 T03160116  RH  029%=      5-min Rain = 0
KHA3 182204Z 18015KT 32/12 A2958 RMK A01 T03160116  RH  029%=      5-min Rain = 0
KHA3 182205Z 17017KT 32/12 A2958 RMK A01 T03160117  RH  029%=      5-min Rain = 0
KHA3 182206Z 17017KT 32/12 A2958 RMK A01 T03160116  RH  029%=      5-min Rain = 0
KHA3 182207Z 18013KT 32/12 A2958 RMK A01 T03160117  RH  030%=      5-min Rain = 0
KHA3 182208Z 19012KT 32/12 A2958 RMK A01 T03170119  RH  030%=      5-min Rain = 0
KHA3 182209Z 20017KT 32/12 A2958 RMK A01 T03190118  RH  029%=      5-min Rain = 0
KHA3 182210Z 20015KT 32/12 A2958 RMK A01 T03190118  RH  029%=      5-min Rain = 0
KHA3 182211Z 21016KT 32/12 A2958 RMK A01 T03190118  RH  029%=      5-min Rain = 0
KHA3 182212Z 21016KT 32/12 A2958 RMK A01 T03180117  RH  029%=      5-min Rain = 0
KHA3 182213Z 20015KT 32/12 A2958 RMK A01 T03170117  RH  029%=      5-min Rain = 0
KHA3 182214Z 20012KT 32/12 A2958 RMK A01 T03170118  RH  029%=      5-min Rain = 0
KHA3 182215Z 20010KT 32/12 A2958 RMK A01 T03170119  RH  030%=      5-min Rain = 0
KHA3 182216Z 18012KT 32/12 A2958 RMK A01 T03170119  RH  030%=      5-min Rain = 0
KHA3 182217Z 19012KT 32/12 A2958 RMK A01 T03190119  RH  030%=      5-min Rain = 0
KHA3 182218Z 19015KT 32/12 A2958 RMK A01 T03190118  RH  029%=      5-min Rain = 0
KHA3 182219Z 19016KT 32/12 A2958 RMK A01 T03190117  RH  029%=      5-min Rain = 0
KHA3 182220Z 19018KT 32/12 A2958 RMK A01 T03180116  RH  029%=      5-min Rain = 0
KHA3 182221Z 17017KT 32/12 A2958 RMK A01 T03170116  RH  029%=      5-min Rain = 0
KHA3 182222Z 17016KT 32/12 A2958 RMK A01 T03160116  RH  029%=      5-min Rain = 0
KHA3 182223Z 18015KT 32/12 A2958 RMK A01 T03150116  RH  030%=      5-min Rain = 0
KHA3 182224Z 17017KT 32/12 A2958 RMK A01 T03150117  RH  030%=      5-min Rain = 0
KHA3 182225Z 19015KT 32/12 A2958 RMK A01 T03150117  RH  030%=      5-min Rain = 0
KHA3 182226Z 20014KT 32/12 A2958 RMK A01 T03150118  RH  030%=      5-min Rain = 0
KHA3 182227Z 19014KT 32/12 A2958 RMK A01 T03160120  RH  030%=      5-min Rain = 0
KHA3 182228Z 19017G23KT 32/12 A2958 RMK A01 T03170119  RH  030%=      5-min Rain = 0
KHA3 182229Z 18016KT 32/12 A2958 RMK A01 T03160118  RH  030%=      5-min Rain = 0
KHA3 182230Z 18014KT 32/12 A2958 RMK A01 T03150117  RH  030%=      5-min Rain = 0
KHA3 182231Z 19013KT 31/12 A2958 RMK A01 T03140119  RH  030%=      5-min Rain = 0
KHA3 182232Z 20015KT 32/12 A2958 RMK A01 T03150118  RH  030%=      5-min Rain = 0
KHA3 182233Z 20014KT 32/12 A2958 RMK A01 T03150119  RH  030%=      5-min Rain = 0
KHA3 182234Z 20011KT 32/12 A2958 RMK A01 T03150120  RH  030%=      5-min Rain = 0
KHA3 182235Z 20014KT 32/12 A2958 RMK A01 T03160120  RH  030%=      5-min Rain = 0
KHA3 182236Z 20015KT 32/12 A2958 RMK A01 T03160120  RH  030%=      5-min Rain = 0
KHA3 182237Z 20012KT 32/12 A2958 RMK A01 T03150120  RH  030%=      5-min Rain = 0
KHA3 182238Z 18012KT 32/12 A2958 RMK A01 T03150121  RH  031%=      5-min Rain = 0
KHA3 182239Z 20018KT 32/12 A2958 RMK A01 T03150120  RH  030%=      5-min Rain = 0
KHA3 182240Z 20014KT 31/12 A2958 RMK A01 T03140120  RH  030%=      5-min Rain = 0
KHA3 182241Z 20013KT 31/12 A2958 RMK A01 T03130120  RH  031%=      5-min Rain = 0
KHA3 182242Z 19013KT 31/12 A2958 RMK A01 T03130120  RH  031%=      5-min Rain = 0
KHA3 182243Z 18012KT 31/12 A2958 RMK A01 T03130121  RH  031%=      5-min Rain = 0
KHA3 182244Z 19013KT 31/12 A2958 RMK A01 T03130121  RH  031%=      5-min Rain = 0
KHA3 182245Z 18013KT 31/12 A2958 RMK A01 T03130121  RH  031%=      5-min Rain = 0
KHA3 182246Z 18014KT 31/12 A2958 RMK A01 T03130121  RH  031%=      5-min Rain = 0
KHA3 182247Z 17016KT 31/12 A2958 RMK A01 T03130121  RH  031%=      5-min Rain = 0
KHA3 182248Z 18016KT 31/12 A2958 RMK A01 T03120120  RH  031%=      5-min Rain = 0
KHA3 182249Z 18014KT 31/12 A2958 RMK A01 T03120120  RH  031%=      5-min Rain = 0
KHA3 182250Z 17014KT 31/12 A2958 RMK A01 T03110120  RH  031%=      5-min Rain = 0
KHA3 182251Z 18014KT 31/12 A2958 RMK A01 T03110120  RH  031%=      5-min Rain = 0
KHA3 182252Z 19019KT 31/12 A2958 RMK A01 T03100120  RH  031%=      5-min Rain = 0
KHA3 182253Z 20016KT 31/12 A2958 RMK A01 T03100121  RH  031%=      5-min Rain = 0
KHA3 182254Z 20013KT 31/12 A2958 RMK A01 T03110122  RH  031%=      5-min Rain = 0
KHA3 182255Z 20016KT 31/12 A2958 RMK A01 T03110121  RH  031%=      5-min Rain = 0
KHA3 182256Z 19016KT 31/12 A2958 RMK A01 T03100121  RH  031%=      5-min Rain = 0
KHA3 182257Z 20014KT 31/12 A2958 RMK A01 T03100120  RH  031%=      5-min Rain = 0
KHA3 182258Z 19015KT 31/12 A2958 RMK A01 T03100121  RH  031%=      5-min Rain = 0
KHA3 182259Z 18015KT 31/12 A2958 RMK A01 T03090121  RH  031%=      5-min Rain = 0
KHA3 182300Z 18012KT 31/12 A2958 RMK A01 T03090121  RH  031%=      5-min Rain = 0
KHA3 182301Z 19012KT 31/12 A2958 RMK A01 T03090122  RH  032%=      5-min Rain = 0
KHA3 182302Z 17015G21KT 31/12 A2958 RMK A01 T03090121  RH  032%=      5-min Rain = 0
KHA3 182303Z 17014G19KT 31/12 A2958 RMK A01 T03090122  RH  032%=      5-min Rain = 0
KHA3 182304Z 18015KT 31/12 A2958 RMK A01 T03080120  RH  031%=      5-min Rain = 0
KHA3 182305Z 18017KT 31/12 A2958 RMK A01 T03080120  RH  031%=      5-min Rain = 0
KHA3 182306Z 18013KT 31/12 A2957 RMK A01 T03080120  RH  032%=      5-min Rain = 0
KHA3 182307Z 18013KT 31/12 A2957 RMK A01 T03070120  RH  032%=      5-min Rain = 0
KHA3 182308Z 17014KT 31/12 A2957 RMK A01 T03070120  RH  032%=      5-min Rain = 0
KHA3 182309Z 18015KT 31/12 A2957 RMK A01 T03070121  RH  032%=      5-min Rain = 0
KHA3 182310Z 17016KT 31/12 A2957 RMK A01 T03070119  RH  032%=      5-min Rain = 0
KHA3 182311Z 17012KT 31/12 A2957 RMK A01 T03070119  RH  032%=      5-min Rain = 0
KHA3 182312Z 17011KT 31/12 A2957 RMK A01 T03060120  RH  032%=      5-min Rain = 0
KHA3 182313Z 17014KT 31/12 A2957 RMK A01 T03060121  RH  032%=      5-min Rain = 0
KHA3 182314Z 17013KT 31/12 A2957 RMK A01 T03060120  RH  032%=      5-min Rain = 0
KHA3 182315Z 17013KT 31/12 A2957 RMK A01 T03050121  RH  032%=      5-min Rain = 0
KHA3 182316Z 17015KT 31/12 A2957 RMK A01 T03060120  RH  032%=      5-min Rain = 0
KHA3 182317Z 17013KT 31/12 A2957 RMK A01 T03050120  RH  032%=      5-min Rain = 0
KHA3 182318Z 17014KT 31/12 A2957 RMK A01 T03050120  RH  032%=      5-min Rain = 0
KHA3 182319Z 17014KT 31/12 A2957 RMK A01 T03050121  RH  032%=      5-min Rain = 0
KHA3 182320Z 18016KT 31/12 A2957 RMK A01 T03050121  RH  032%=      5-min Rain = 0
KHA3 182321Z 18014KT 30/12 A2957 RMK A01 T03040120  RH  032%=      5-min Rain = 0
KHA3 182322Z 18013KT 30/12 A2957 RMK A01 T03040121  RH  032%=      5-min Rain = 0
KHA3 182323Z 17013KT 30/12 A2957 RMK A01 T03040121  RH  033%=      5-min Rain = 0
KHA3 182324Z 17012KT 30/12 A2957 RMK A01 T03030121  RH  033%=      5-min Rain = 0
KHA3 182325Z 18012KT 30/12 A2957 RMK A01 T03020121  RH  033%=      5-min Rain = 0
KHA3 182326Z 18014KT 30/12 A2957 RMK A01 T03020121  RH  033%=      5-min Rain = 0
KHA3 182327Z 17013KT 30/12 A2957 RMK A01 T03010121  RH  033%=      5-min Rain = 0
KHA3 182328Z 17012KT 30/12 A2957 RMK A01 T03010121  RH  033%=      5-min Rain = 0
KHA3 182329Z 17012KT 30/12 A2958 RMK A01 T03000121  RH  033%=      5-min Rain = 0
KHA3 182330Z 17012KT 30/12 A2957 RMK A01 T02980121  RH  034%=      5-min Rain = 0
KHA3 182331Z 18011KT 30/12 A2957 RMK A01 T02970121  RH  034%=      5-min Rain = 0
KHA3 182332Z 18013KT 30/12 A2957 RMK A01 T02960122  RH  034%=      5-min Rain = 0
KHA3 182333Z 18014KT 30/12 A2957 RMK A01 T02950121  RH  034%=      5-min Rain = 0
KHA3 182334Z 17012KT 30/12 A2957 RMK A01 T02950121  RH  034%=      5-min Rain = 0
KHA3 182335Z 17014KT 30/12 A2957 RMK A01 T02950121  RH  034%=      5-min Rain = 0
KHA3 182336Z 17013KT 30/12 A2957 RMK A01 T02950121  RH  034%=      5-min Rain = 0
KHA3 182337Z 17012KT 30/12 A2957 RMK A01 T02960121  RH  034%=      5-min Rain = 0
KHA3 182338Z 17013KT 30/12 A2957 RMK A01 T02960121  RH  034%=      5-min Rain = 0
KHA3 182339Z 17012KT 30/12 A2957 RMK A01 T02960122  RH  034%=      5-min Rain = 0
KHA3 182340Z 17014KT 30/12 A2957 RMK A01 T02950122  RH  034%=      5-min Rain = 0
KHA3 182341Z 17012KT 29/12 A2957 RMK A01 T02940122  RH  035%=      5-min Rain = 0
KHA3 182342Z 17013KT 29/12 A2958 RMK A01 T02940122  RH  035%=      5-min Rain = 0
KHA3 182343Z 17013KT 29/12 A2958 RMK A01 T02930122  RH  035%=      5-min Rain = 0
KHA3 182344Z 17012KT 29/12 A2958 RMK A01 T02920122  RH  035%=      5-min Rain = 0
KHA3 182345Z 17011KT 29/12 A2958 RMK A01 T02920121  RH  035%=      5-min Rain = 0
KHA3 182346Z 17010KT 29/12 A2958 RMK A01 T02920122  RH  035%=      5-min Rain = 0
KHA3 182347Z 17011KT 29/12 A2958 RMK A01 T02910121  RH  035%=      5-min Rain = 0
KHA3 182348Z 17011KT 29/12 A2958 RMK A01 T02910122  RH  035%=      5-min Rain = 0
KHA3 182349Z 17010KT 29/12 A2958 RMK A01 T02900122  RH  035%=      5-min Rain = 0
KHA3 182350Z 16011KT 29/12 A2958 RMK A01 T02890121  RH  035%=      5-min Rain = 0
KHA3 182351Z 15012KT 29/12 A2958 RMK A01 T02890121  RH  036%=      5-min Rain = 0
KHA3 182352Z 15011KT 29/12 A2957 RMK A01 T02880121  RH  036%=      5-min Rain = 0
KHA3 182353Z 15011KT 29/12 A2957 RMK A01 T02880121  RH  036%=      5-min Rain = 0
KHA3 182354Z 15013KT 29/12 A2957 RMK A01 T02870119  RH  035%=      5-min Rain = 0
KHA3 182355Z 15016KT 29/12 A2958 RMK A01 T02870116  RH  035%=      5-min Rain = 0
KHA3 182356Z 16014KT 29/11 A2958 RMK A01 T02870114  RH  034%=      5-min Rain = 0
KHA3 182357Z 16015KT 29/11 A2958 RMK A01 T02870113  RH  034%=      5-min Rain = 0
KHA3 182358Z 16014KT 29/11 A2958 RMK A01 T02870111  RH  034%=      5-min Rain = 0
KHA3 182359Z 15013KT 29/11 A2958 RMK A01 T02870112  RH  034%=      5-min Rain = 0
KHA3 190000Z 16014KT 29/11 A2958 RMK A01 T02860111  RH  034%=      5-min Rain = 0
KHA3 190001Z 15014KT 29/11 A2958 RMK A01 T02850110  RH  034%=      5-min Rain = 0
KHA3 190002Z 16016KT 28/11 A2957 RMK A01 T02840110  RH  034%=      5-min Rain = 0
KHA3 190003Z 16013KT 29/11 A2958 RMK A01 T02850110  RH  034%=      5-min Rain = 0
KHA3 190004Z 16013KT 28/11 A2958 RMK A01 T02840110  RH  034%=      5-min Rain = 0
KHA3 190005Z 16012KT 28/11 A2958 RMK A01 T02830110  RH  034%=      5-min Rain = 0
KHA3 190006Z 16012KT 28/11 A2958 RMK A01 T02830110  RH  034%=      5-min Rain = 0
KHA3 190007Z 16015KT 28/11 A2958 RMK A01 T02830110  RH  034%=      5-min Rain = 0
KHA3 190008Z 16011KT 28/11 A2958 RMK A01 T02820110  RH  034%=      5-min Rain = 0
KHA3 190009Z 16013KT 28/11 A2958 RMK A01 T02820110  RH  034%=      5-min Rain = 0
KHA3 190010Z 16012KT 28/11 A2958 RMK A01 T02810110  RH  034%=      5-min Rain = 0
KHA3 190011Z 16012KT 28/11 A2958 RMK A01 T02810110  RH  034%=      5-min Rain = 0
KHA3 190012Z 16012KT 28/11 A2958 RMK A01 T02820110  RH  034%=      5-min Rain = 0
KHA3 190013Z 16012KT 28/11 A2958 RMK A01 T02820110  RH  034%=      5-min Rain = 0
KHA3 190014Z 16014KT 28/11 A2958 RMK A01 T02810111  RH  035%=      5-min Rain = 0
KHA3 190015Z 16012KT 28/11 A2958 RMK A01 T02810111  RH  035%=      5-min Rain = 0
KHA3 190016Z 16011KT 28/11 A2958 RMK A01 T02810111  RH  035%=      5-min Rain = 0
KHA3 190017Z 16012KT 28/11 A2958 RMK A01 T02800111  RH  035%=      5-min Rain = 0
KHA3 190018Z 16013KT 28/11 A2958 RMK A01 T02800111  RH  035%=      5-min Rain = 0
KHA3 190019Z 16012KT 28/11 A2958 RMK A01 T02800110  RH  035%=      5-min Rain = 0
KHA3 190020Z 16011KT 28/11 A2958 RMK A01 T02800110  RH  035%=      5-min Rain = 0
KHA3 190021Z 16011KT 28/11 A2958 RMK A01 T02790111  RH  035%=      5-min Rain = 0
KHA3 190022Z 16012KT 28/11 A2958 RMK A01 T02790111  RH  035%=      5-min Rain = 0
KHA3 190023Z 16012KT 28/12 A2958 RMK A01 T02780115  RH  036%=      5-min Rain = 0
KHA3 190024Z 17012KT 28/12 A2958 RMK A01 T02760121  RH  038%=      5-min Rain = 0
KHA3 190025Z 16012KT 27/13 A2958 RMK A01 T02720127  RH  041%=      5-min Rain = 0
KHA3 190026Z 17012KT 27/13 A2958 RMK A01 T02680127  RH  042%=      5-min Rain = 0
KHA3 190027Z 17010KT 26/13 A2958 RMK A01 T02640130  RH  043%=      5-min Rain = 0
KHA3 190028Z 17009KT 26/13 A2958 RMK A01 T02610134  RH  046%=      5-min Rain = 0
KHA3 190029Z 17011KT 26/14 A2958 RMK A01 T02560135  RH  047%=      5-min Rain = 0
KHA3 190030Z 17012KT 26/13 A2958 RMK A01 T02550132  RH  046%=      5-min Rain = 0
KHA3 190031Z 17014KT 25/13 A2958 RMK A01 T02540134  RH  047%=      5-min Rain = 0
KHA3 190032Z 17015KT 25/14 A2958 RMK A01 T02510139  RH  050%=      5-min Rain = 0
KHA3 190033Z 17014KT 25/14 A2959 RMK A01 T02470143  RH  052%=      5-min Rain = 0
KHA3 190034Z 16015KT 24/14 A2959 RMK A01 T02410144  RH  055%=      5-min Rain = 0.01
KHA3 190035Z 17015KT 24/15 A2959 RMK A01 T02370147  RH  057%=      5-min Rain = 0
KHA3 190036Z 17015KT 23/15 A296 RMK A01 T02320152  RH  061%=      5-min Rain = 0.01
KHA3 190037Z 18012KT 23/16 A2961 RMK A01 T02260155  RH  064%=      5-min Rain = 0.02
KHA3 190038Z 18011KT 22/16 A2961 RMK A01 T02210155  RH  066%=      5-min Rain = 0.01
KHA3 190039Z 18009KT 22/16 A2961 RMK A01 T02190157  RH  068%=      5-min Rain = 0.02
KHA3 190040Z 17007KT 22/16 A2961 RMK A01 T02170157  RH  069%=      5-min Rain = 0.01
KHA3 190041Z 15006KT 22/16 A2961 RMK A01 T02150155  RH  068%=      5-min Rain = 0.01
KHA3 190042Z 13005KT 22/16 A296 RMK A01 T02150155  RH  069%=      5-min Rain = 0
KHA3 190043Z 12005KT 21/16 A296 RMK A01 T02140155  RH  069%=      5-min Rain = 0
KHA3 190044Z 10006KT 21/16 A296 RMK A01 T02140159  RH  071%=      5-min Rain = 0
KHA3 190045Z 11006KT 21/16 A296 RMK A01 T02120158  RH  071%=      5-min Rain = 0
KHA3 190046Z 11006KT 21/16 A296 RMK A01 T02110160  RH  073%=      5-min Rain = 0
KHA3 190047Z 11006KT 21/16 A296 RMK A01 T02100162  RH  074%=      5-min Rain = 0
KHA3 190048Z 12005KT 21/16 A296 RMK A01 T02090159  RH  073%=      5-min Rain = 0
KHA3 190049Z 13006KT 21/16 A296 RMK A01 T02100161  RH  073%=      5-min Rain = 0
KHA3 190050Z 14008KT 21/16 A296 RMK A01 T02110158  RH  072%=      5-min Rain = 0
KHA3 190051Z 14009KT 22/15 A2961 RMK A01 T02160150  RH  066%=      5-min Rain = 0
KHA3 190052Z 14009KT 22/15 A296 RMK A01 T02210151  RH  064%=      5-min Rain = 0
KHA3 190053Z 14011KT 22/15 A2961 RMK A01 T02230148  RH  062%=      5-min Rain = 0
KHA3 190054Z 14011KT 23/14 A296 RMK A01 T02290142  RH  058%=      5-min Rain = 0
KHA3 190055Z 15012KT 23/14 A296 RMK A01 T02330143  RH  057%=      5-min Rain = 0
KHA3 190056Z 15010KT 24/15 A296 RMK A01 T02360146  RH  057%=      5-min Rain = 0
KHA3 190057Z 15009KT 23/15 A296 RMK A01 T02340153  RH  060%=      5-min Rain = 0
KHA3 190058Z 15013G18KT 23/15 A296 RMK A01 T02300154  RH  062%=      5-min Rain = 0
KHA3 190059Z 14012KT 23/15 A2959 RMK A01 T02260153  RH  063%=      5-min Rain = 0
KHA3 190100Z 14012KT 22/15 A2959 RMK A01 T02240154  RH  065%=      5-min Rain = 0
KHA3 190101Z 13011KT 22/16 A2959 RMK A01 T02220155  RH  066%=      5-min Rain = 0
KHA3 190102Z 13010KT 22/16 A2959 RMK A01 T02210156  RH  066%=      5-min Rain = 0
KHA3 190103Z 13009KT 22/16 A2959 RMK A01 T02200157  RH  068%=      5-min Rain = 0
KHA3 190104Z 13009KT 22/16 A2959 RMK A01 T02160159  RH  070%=      5-min Rain = 0
KHA3 190105Z 14009KT 21/16 A2959 RMK A01 T02140157  RH  070%=      5-min Rain = 0
KHA3 190106Z 13010KT 21/15 A2959 RMK A01 T02130154  RH  069%=      5-min Rain = 0
KHA3 190107Z 14009KT 21/15 A2959 RMK A01 T02140154  RH  068%=      5-min Rain = 0
KHA3 190108Z 14009KT 22/16 A2959 RMK A01 T02150155  RH  069%=      5-min Rain = 0
KHA3 190109Z 14009KT 22/16 A296 RMK A01 T02150157  RH  070%=      5-min Rain = 0
KHA3 190110Z 15010KT 21/16 A296 RMK A01 T02130159  RH  071%=      5-min Rain = 0
KHA3 190111Z 15010KT 21/16 A296 RMK A01 T02110160  RH  072%=      5-min Rain = 0
KHA3 190112Z 15012KT 21/16 A2961 RMK A01 T02100158  RH  072%=      5-min Rain = 0
KHA3 190113Z 16012KT 21/16 A2961 RMK A01 T02110157  RH  071%=      5-min Rain = 0.01
KHA3 190114Z 16011KT 21/16 A2961 RMK A01 T02120155  RH  070%=      5-min Rain = 0.01
KHA3 190115Z 16010KT 21/16 A2961 RMK A01 T02130158  RH  071%=      5-min Rain = 0
KHA3 190116Z 15008KT 21/16 A2961 RMK A01 T02110159  RH  072%=      5-min Rain = 0
KHA3 190117Z 14010KT 21/16 A2961 RMK A01 T02090155  RH  071%=      5-min Rain = 0
KHA3 190118Z 14010KT 21/15 A2961 RMK A01 T02120151  RH  068%=      5-min Rain = 0
KHA3 190119Z 14010KT 22/15 A2961 RMK A01 T02160149  RH  066%=      5-min Rain = 0
KHA3 190120Z 14011KT 22/15 A2961 RMK A01 T02180149  RH  065%=      5-min Rain = 0
KHA3 190121Z 14011KT 22/15 A2961 RMK A01 T02210146  RH  062%=      5-min Rain = 0
KHA3 190122Z 14010KT 22/15 A2961 RMK A01 T02230149  RH  063%=      5-min Rain = 0
KHA3 190123Z 14011KT 22/15 A2961 RMK A01 T02230146  RH  062%=      5-min Rain = 0
KHA3 190124Z 14011KT 22/15 A2961 RMK A01 T02230145  RH  061%=      5-min Rain = 0
KHA3 190125Z 14012KT 23/14 A2961 RMK A01 T02250144  RH  060%=      5-min Rain = 0
KHA3 190126Z 14011KT 23/14 A2961 RMK A01 T02260143  RH  059%=      5-min Rain = 0
KHA3 190127Z 14011KT 23/14 A2961 RMK A01 T02270144  RH  059%=      5-min Rain = 0
KHA3 190128Z 14011KT 23/15 A2961 RMK A01 T02270146  RH  060%=      5-min Rain = 0
KHA3 190129Z 14011KT 23/15 A296 RMK A01 T02250145  RH  060%=      5-min Rain = 0
KHA3 190130Z 13011KT 22/15 A2961 RMK A01 T02240145  RH  061%=      5-min Rain = 0
KHA3 190131Z 13010KT 23/14 A2961 RMK A01 T02250142  RH  060%=      5-min Rain = 0
KHA3 190132Z 14012KT 23/14 A2961 RMK A01 T02260142  RH  059%=      5-min Rain = 0
KHA3 190133Z 13011KT 23/14 A2961 RMK A01 T02260142  RH  059%=      5-min Rain = 0
KHA3 190134Z 13011KT 23/14 A2961 RMK A01 T02250142  RH  059%=      5-min Rain = 0
KHA3 190135Z 13011KT 23/14 A2961 RMK A01 T02250140  RH  058%=      5-min Rain = 0
KHA3 190136Z 14011KT 23/14 A2961 RMK A01 T02260141  RH  059%=      5-min Rain = 0
KHA3 190137Z 14010KT 23/14 A2961 RMK A01 T02260140  RH  058%=      5-min Rain = 0
KHA3 190138Z 14011KT 23/14 A2961 RMK A01 T02260138  RH  058%=      5-min Rain = 0
KHA3 190139Z 14010KT 23/14 A2961 RMK A01 T02270139  RH  058%=      5-min Rain = 0
KHA3 190140Z 14010KT 23/14 A2961 RMK A01 T02270140  RH  058%=      5-min Rain = 0
KHA3 190141Z 14011KT 23/14 A2961 RMK A01 T02250140  RH  059%=      5-min Rain = 0
KHA3 190142Z 14010KT 23/14 A2961 RMK A01 T02250140  RH  059%=      5-min Rain = 0
KHA3 190143Z 14009KT 22/14 A2961 RMK A01 T02240140  RH  059%=      5-min Rain = 0
KHA3 190144Z 14009KT 22/14 A2961 RMK A01 T02240137  RH  058%=      5-min Rain = 0
KHA3 190145Z 13010KT 23/14 A2961 RMK A01 T02250138  RH  058%=      5-min Rain = 0
KHA3 190146Z 13010KT 23/14 A2961 RMK A01 T02260138  RH  057%=      5-min Rain = 0
KHA3 190147Z 13011KT 23/14 A2961 RMK A01 T02260138  RH  058%=      5-min Rain = 0
KHA3 190148Z 13011KT 23/14 A2961 RMK A01 T02260136  RH  057%=      5-min Rain = 0
KHA3 190149Z 12010KT 23/14 A2961 RMK A01 T02260140  RH  058%=      5-min Rain = 0
KHA3 190150Z 12009KT 22/14 A2961 RMK A01 T02230140  RH  059%=      5-min Rain = 0
KHA3 190151Z 12009KT 22/14 A2961 RMK A01 T02210140  RH  060%=      5-min Rain = 0
KHA3 190152Z 12010KT 22/14 A2961 RMK A01 T02190140  RH  061%=      5-min Rain = 0
KHA3 190153Z 12011KT 22/14 A2961 RMK A01 T02180139  RH  061%=      5-min Rain = 0
KHA3 190154Z 12012KT 22/14 A2961 RMK A01 T02170138  RH  060%=      5-min Rain = 0
KHA3 190155Z 12011KT 22/14 A2961 RMK A01 T02170138  RH  061%=      5-min Rain = 0
KHA3 190156Z 12011KT 22/14 A2961 RMK A01 T02160137  RH  061%=      5-min Rain = 0
KHA3 190157Z 12011KT 22/14 A2961 RMK A01 T02160138  RH  061%=      5-min Rain = 0
KHA3 190158Z 12011KT 21/14 A2961 RMK A01 T02140137  RH  061%=      5-min Rain = 0
KHA3 190159Z 12012KT 21/13 A2961 RMK A01 T02130134  RH  060%=      5-min Rain = 0
KHA3 190200Z 12014KT 22/13 A2961 RMK A01 T02150133  RH  060%=      5-min Rain = 0
KHA3 190201Z 12013KT 22/13 A2961 RMK A01 T02160132  RH  059%=      5-min Rain = 0
KHA3 190202Z 12013KT 22/13 A2961 RMK A01 T02170132  RH  058%=      5-min Rain = 0
KHA3 190203Z 12013KT 22/13 A2961 RMK A01 T02170132  RH  058%=      5-min Rain = 0
KHA3 190204Z 12014KT 22/13 A2961 RMK A01 T02180130  RH  058%=      5-min Rain = 0
KHA3 190205Z 12015KT 22/13 A2961 RMK A01 T02190130  RH  057%=      5-min Rain = 0
KHA3 190206Z 12014KT 22/13 A2961 RMK A01 T02190129  RH  056%=      5-min Rain = 0
KHA3 190207Z 12013KT 22/13 A2961 RMK A01 T02200130  RH  057%=      5-min Rain = 0
KHA3 190208Z 13015KT 22/13 A2961 RMK A01 T02200129  RH  056%=      5-min Rain = 0
KHA3 190209Z 12015KT 22/13 A2961 RMK A01 T02200127  RH  055%=      5-min Rain = 0
KHA3 190210Z 13013KT 22/13 A2961 RMK A01 T02220129  RH  056%=      5-min Rain = 0
KHA3 190211Z 13013KT 22/13 A2961 RMK A01 T02220128  RH  055%=      5-min Rain = 0
KHA3 190212Z 13015KT 22/13 A2961 RMK A01 T02220127  RH  055%=      5-min Rain = 0
KHA3 190213Z 13014KT 22/13 A2961 RMK A01 T02220126  RH  054%=      5-min Rain = 0
KHA3 190214Z 13015KT 22/13 A2961 RMK A01 T02240125  RH  054%=      5-min Rain = 0
KHA3 190215Z 13015G20KT 23/13 A2961 RMK A01 T02250126  RH  053%=      5-min Rain = 0
KHA3 190216Z 13015KT 23/13 A2961 RMK A01 T02250126  RH  053%=      5-min Rain = 0
KHA3 190217Z 13015KT 23/13 A2961 RMK A01 T02250126  RH  054%=      5-min Rain = 0
KHA3 190218Z 13014KT 22/13 A2961 RMK A01 T02240127  RH  054%=      5-min Rain = 0
KHA3 190219Z 13014KT 22/13 A296 RMK A01 T02240126  RH  054%=      5-min Rain = 0
KHA3 190220Z 13015KT 22/13 A296 RMK A01 T02240128  RH  054%=      5-min Rain = 0
KHA3 190221Z 13014KT 22/13 A296 RMK A01 T02240127  RH  054%=      5-min Rain = 0
KHA3 190222Z 13014KT 22/13 A2961 RMK A01 T02230127  RH  054%=      5-min Rain = 0
KHA3 190223Z 13014KT 22/13 A2961 RMK A01 T02230128  RH  055%=      5-min Rain = 0
KHA3 190224Z 13014KT 22/13 A2961 RMK A01 T02220129  RH  055%=      5-min Rain = 0
KHA3 190225Z 13015KT 22/13 A2961 RMK A01 T02210127  RH  055%=      5-min Rain = 0
KHA3 190226Z 14014KT 22/13 A2961 RMK A01 T02220128  RH  055%=      5-min Rain = 0
KHA3 190227Z 14015KT 22/13 A2961 RMK A01 T02210127  RH  055%=      5-min Rain = 0
KHA3 190228Z 14014KT 22/13 A2961 RMK A01 T02220126  RH  055%=      5-min Rain = 0
KHA3 190229Z 14016KT 22/13 A2961 RMK A01 T02220127  RH  055%=      5-min Rain = 0
KHA3 190230Z 14015KT 22/13 A2961 RMK A01 T02220126  RH  055%=      5-min Rain = 0
KHA3 190231Z 14015KT 22/13 A2961 RMK A01 T02220126  RH  054%=      5-min Rain = 0
KHA3 190232Z 14014KT 22/13 A2961 RMK A01 T02230127  RH  054%=      5-min Rain = 0
KHA3 190233Z 14014KT 22/13 A2961 RMK A01 T02230127  RH  055%=      5-min Rain = 0
KHA3 190234Z 14015KT 22/13 A2961 RMK A01 T02220127  RH  055%=      5-min Rain = 0
KHA3 190235Z 14015KT 22/13 A2961 RMK A01 T02210127  RH  055%=      5-min Rain = 0
KHA3 190236Z 14015KT 22/13 A2961 RMK A01 T02210128  RH  055%=      5-min Rain = 0
KHA3 190237Z 14015KT 22/13 A2961 RMK A01 T02210128  RH  056%=      5-min Rain = 0
KHA3 190238Z 14015KT 22/13 A2961 RMK A01 T02200128  RH  056%=      5-min Rain = 0
KHA3 190239Z 14015KT 22/13 A2961 RMK A01 T02200128  RH  056%=      5-min Rain = 0
KHA3 190240Z 14016KT 22/13 A2961 RMK A01 T02200128  RH  056%=      5-min Rain = 0
KHA3 190241Z 15015KT 22/13 A2961 RMK A01 T02190129  RH  056%=      5-min Rain = 0
KHA3 190242Z 14014KT 22/13 A2961 RMK A01 T02190129  RH  056%=      5-min Rain = 0
KHA3 190243Z 15014KT 22/13 A2961 RMK A01 T02180130  RH  057%=      5-min Rain = 0
KHA3 190244Z 15014KT 22/13 A2961 RMK A01 T02180130  RH  057%=      5-min Rain = 0
KHA3 190245Z 14014G19KT 22/13 A2961 RMK A01 T02170131  RH  058%=      5-min Rain = 0
KHA3 190246Z 14014KT 22/13 A2961 RMK A01 T02160129  RH  058%=      5-min Rain = 0
KHA3 190247Z 15014KT 22/13 A2961 RMK A01 T02170129  RH  057%=      5-min Rain = 0
KHA3 190248Z 14015KT 22/13 A2961 RMK A01 T02170128  RH  057%=      5-min Rain = 0
KHA3 190249Z 14015KT 22/13 A2961 RMK A01 T02180128  RH  057%=      5-min Rain = 0
KHA3 190250Z 15016KT 22/13 A2961 RMK A01 T02180128  RH  057%=      5-min Rain = 0
KHA3 190251Z 15015KT 22/13 A2961 RMK A01 T02190128  RH  056%=      5-min Rain = 0
KHA3 190252Z 15016KT 22/13 A2961 RMK A01 T02190128  RH  056%=      5-min Rain = 0
KHA3 190253Z 15015KT 22/13 A2961 RMK A01 T02200128  RH  056%=      5-min Rain = 0
KHA3 190254Z 15015KT 22/13 A2961 RMK A01 T02200129  RH  056%=      5-min Rain = 0
KHA3 190255Z 15015KT 22/13 A2961 RMK A01 T02210129  RH  056%=      5-min Rain = 0
KHA3 190256Z 15015KT 22/13 A2961 RMK A01 T02210129  RH  056%=      5-min Rain = 0
KHA3 190257Z 15017KT 22/13 A2961 RMK A01 T02200128  RH  056%=      5-min Rain = 0
KHA3 190258Z 15018KT 22/13 A2961 RMK A01 T02210126  RH  055%=      5-min Rain = 0
KHA3 190259Z 15015KT 22/13 A2961 RMK A01 T02230128  RH  055%=      5-min Rain = 0
KHA3 190300Z 15016KT 22/13 A2961 RMK A01 T02230128  RH  055%=      5-min Rain = 0
KHA3 190301Z 15015G20KT 22/13 A2961 RMK A01 T02230129  RH  055%=      5-min Rain = 0
KHA3 190302Z 15017KT 22/13 A2961 RMK A01 T02220128  RH  055%=      5-min Rain = 0
KHA3 190303Z 15016KT 22/13 A2961 RMK A01 T02220128  RH  055%=      5-min Rain = 0
KHA3 190304Z 15016G21KT 22/13 A2961 RMK A01 T02230129  RH  055%=      5-min Rain = 0
KHA3 190305Z 15017G22KT 22/13 A2961 RMK A01 T02230129  RH  055%=      5-min Rain = 0
KHA3 190306Z 16017KT 22/13 A2962 RMK A01 T02230128  RH  055%=      5-min Rain = 0
KHA3 190307Z 15018KT 22/13 A2962 RMK A01 T02240128  RH  055%=      5-min Rain = 0
KHA3 190308Z 16016KT 23/13 A2962 RMK A01 T02250127  RH  054%=      5-min Rain = 0
KHA3 190309Z 16016KT 23/13 A2962 RMK A01 T02250128  RH  054%=      5-min Rain = 0
KHA3 190310Z 16016KT 23/13 A2962 RMK A01 T02250129  RH  055%=      5-min Rain = 0
KHA3 190311Z 16018KT 23/13 A2963 RMK A01 T02250128  RH  054%=      5-min Rain = 0
KHA3 190312Z 16016KT 23/13 A2963 RMK A01 T02250128  RH  054%=      5-min Rain = 0
KHA3 190313Z 16017KT 23/13 A2963 RMK A01 T02250129  RH  055%=      5-min Rain = 0
KHA3 190314Z 15017KT 22/13 A2963 RMK A01 T02240128  RH  055%=      5-min Rain = 0
KHA3 190315Z 16017KT 22/13 A2963 RMK A01 T02240127  RH  054%=      5-min Rain = 0
KHA3 190316Z 16017G22KT 23/13 A2963 RMK A01 T02250128  RH  054%=      5-min Rain = 0
KHA3 190317Z 16022KT 23/13 A2963 RMK A01 T02250128  RH  054%=      5-min Rain = 0
KHA3 190318Z 17015KT 23/13 A2963 RMK A01 T02250128  RH  054%=      5-min Rain = 0
KHA3 190319Z 18015KT 22/13 A2964 RMK A01 T02240130  RH  055%=      5-min Rain = 0
KHA3 190320Z 18015KT 22/13 A2964 RMK A01 T02230129  RH  055%=      5-min Rain = 0
KHA3 190321Z 18015KT 22/13 A2964 RMK A01 T02230129  RH  055%=      5-min Rain = 0
KHA3 190322Z 20013KT 22/13 A2964 RMK A01 T02220128  RH  055%=      5-min Rain = 0
KHA3 190323Z 19011KT 22/13 A2964 RMK A01 T02240128  RH  055%=      5-min Rain = 0
KHA3 190324Z 20009KT 22/13 A2964 RMK A01 T02230130  RH  056%=      5-min Rain = 0
KHA3 190325Z 20010KT 22/13 A2964 RMK A01 T02210130  RH  056%=      5-min Rain = 0
KHA3 190326Z 19012KT 22/13 A2964 RMK A01 T02200130  RH  057%=      5-min Rain = 0
KHA3 190327Z 18013KT 22/13 A2964 RMK A01 T02190130  RH  057%=      5-min Rain = 0
KHA3 190328Z 17017KT 22/13 A2963 RMK A01 T02180128  RH  057%=      5-min Rain = 0
KHA3 190329Z 18018KT 22/13 A2963 RMK A01 T02200128  RH  056%=      5-min Rain = 0
KHA3 190330Z 18017KT 22/13 A2964 RMK A01 T02210128  RH  056%=      5-min Rain = 0
KHA3 190331Z 18015KT 22/13 A2964 RMK A01 T02210128  RH  056%=      5-min Rain = 0
KHA3 190332Z 17015KT 22/13 A2964 RMK A01 T02210128  RH  055%=      5-min Rain = 0
KHA3 190333Z 17014KT 22/13 A2964 RMK A01 T02210127  RH  055%=      5-min Rain = 0
KHA3 190334Z 17014KT 22/13 A2964 RMK A01 T02210127  RH  055%=      5-min Rain = 0
KHA3 190335Z 18012KT 22/13 A2964 RMK A01 T02210127  RH  055%=      5-min Rain = 0
KHA3 190336Z 19010KT 22/13 A2964 RMK A01 T02210128  RH  056%=      5-min Rain = 0
KHA3 190337Z 20007KT 22/13 A2965 RMK A01 T02200128  RH  056%=      5-min Rain = 0
KHA3 190338Z 24007KT 22/13 A2965 RMK A01 T02180129  RH  057%=      5-min Rain = 0
KHA3 190339Z 28008KT 22/13 A2965 RMK A01 T02160132  RH  059%=      5-min Rain = 0
KHA3 190340Z 27006KT 21/13 A2965 RMK A01 T02130133  RH  060%=      5-min Rain = 0
KHA3 190341Z 26005KT 21/13 A2965 RMK A01 T02100134  RH  062%=      5-min Rain = 0
KHA3 190342Z 24005KT 21/13 A2965 RMK A01 T02090133  RH  062%=      5-min Rain = 0
KHA3 190343Z 22006KT 21/13 A2965 RMK A01 T02080134  RH  062%=      5-min Rain = 0
KHA3 190344Z 20007KT 21/13 A2965 RMK A01 T02080133  RH  062%=      5-min Rain = 0
KHA3 190345Z 19009KT 21/13 A2965 RMK A01 T02070131  RH  061%=      5-min Rain = 0
KHA3 190346Z 19011KT 21/13 A2965 RMK A01 T02090129  RH  060%=      5-min Rain = 0
KHA3 190347Z 18010KT 21/13 A2965 RMK A01 T02120127  RH  058%=      5-min Rain = 0
KHA3 190348Z 19009KT 22/13 A2965 RMK A01 T02160126  RH  057%=      5-min Rain = 0
KHA3 190349Z 20006KT 22/13 A2965 RMK A01 T02180126  RH  056%=      5-min Rain = 0
KHA3 190350Z 21008KT 22/13 A2965 RMK A01 T02190128  RH  056%=      5-min Rain = 0
KHA3 190351Z 20008KT 22/13 A2965 RMK A01 T02170126  RH  056%=      5-min Rain = 0
KHA3 190352Z 20008KT 22/13 A2965 RMK A01 T02170126  RH  056%=      5-min Rain = 0
KHA3 190353Z 20008KT 22/13 A2965 RMK A01 T02170125  RH  056%=      5-min Rain = 0
KHA3 190354Z 21006KT 22/13 A2965 RMK A01 T02170126  RH  056%=      5-min Rain = 0
KHA3 190355Z 28005KT 22/13 A2965 RMK A01 T02170129  RH  057%=      5-min Rain = 0
KHA3 190356Z 29006KT 21/13 A2965 RMK A01 T02140130  RH  059%=      5-min Rain = 0
KHA3 190357Z 29006KT 21/13 A2965 RMK A01 T02120129  RH  059%=      5-min Rain = 0
KHA3 190358Z 28005KT 21/13 A2965 RMK A01 T02110130  RH  060%=      5-min Rain = 0
KHA3 190359Z 26005KT 21/13 A2965 RMK A01 T02100126  RH  059%=      5-min Rain = 0
KHA3 190400Z 23005KT 21/12 A2965 RMK A01 T02120124  RH  057%=      5-min Rain = 0
KHA3 190401Z 22005KT 22/12 A2964 RMK A01 T02150122  RH  055%=      5-min Rain = 0
KHA3 190402Z 21006KT 22/12 A2964 RMK A01 T02190123  RH  054%=      5-min Rain = 0
KHA3 190403Z 21005KT 22/12 A2964 RMK A01 T02200123  RH  054%=      5-min Rain = 0
KHA3 190404Z 20005KT 22/12 A2964 RMK A01 T02210124  RH  054%=      5-min Rain = 0
KHA3 190405Z 19005KT 22/12 A2964 RMK A01 T02210124  RH  054%=      5-min Rain = 0
KHA3 190406Z 19006KT 22/13 A2964 RMK A01 T02210125  RH  054%=      5-min Rain = 0
KHA3 190407Z 18007KT 22/13 A2964 RMK A01 T02190126  RH  055%=      5-min Rain = 0
KHA3 190408Z 18007KT 22/13 A2964 RMK A01 T02170127  RH  057%=      5-min Rain = 0
KHA3 190409Z 18008KT 21/13 A2964 RMK A01 T02130126  RH  058%=      5-min Rain = 0
KHA3 190410Z 19009KT 21/13 A2965 RMK A01 T02110127  RH  058%=      5-min Rain = 0
KHA3 190411Z 19008KT 21/13 A2964 RMK A01 T02100127  RH  059%=      5-min Rain = 0
KHA3 190412Z 19007KT 21/13 A2964 RMK A01 T02080127  RH  060%=      5-min Rain = 0
KHA3 190413Z 18006KT 21/13 A2964 RMK A01 T02070126  RH  060%=      5-min Rain = 0
KHA3 190414Z 20005KT 21/13 A2964 RMK A01 T02070127  RH  060%=      5-min Rain = 0
KHA3 190415Z 22004KT 21/13 A2964 RMK A01 T02050128  RH  061%=      5-min Rain = 0
KHA3 190416Z 19002KT 20/13 A2964 RMK A01 T02040127  RH  061%=      5-min Rain = 0
KHA3 190417Z 18003KT 21/13 A2964 RMK A01 T02050126  RH  060%=      5-min Rain = 0
KHA3 190418Z 16003KT 21/12 A2964 RMK A01 T02050124  RH  060%=      5-min Rain = 0
KHA3 190419Z 15001KT 21/12 A2964 RMK A01 T02050123  RH  059%=      5-min Rain = 0
KHA3 190420Z 16003KT 21/12 A2964 RMK A01 T02060123  RH  059%=      5-min Rain = 0
KHA3 190421Z 15004KT 21/12 A2964 RMK A01 T02060124  RH  059%=      5-min Rain = 0
KHA3 190422Z 17008KT 21/13 A2964 RMK A01 T02060125  RH  060%=      5-min Rain = 0
KHA3 190423Z 17009KT 21/13 A2964 RMK A01 T02060126  RH  060%=      5-min Rain = 0
KHA3 190424Z 17009KT 21/13 A2964 RMK A01 T02050126  RH  060%=      5-min Rain = 0
KHA3 190425Z 17009KT 21/13 A2964 RMK A01 T02050126  RH  060%=      5-min Rain = 0
KHA3 190426Z 16008KT 21/12 A2964 RMK A01 T02050124  RH  060%=      5-min Rain = 0
KHA3 190427Z 16008KT 21/12 A2964 RMK A01 T02060124  RH  059%=      5-min Rain = 0
KHA3 190428Z 16009KT 21/12 A2964 RMK A01 T02060124  RH  059%=      5-min Rain = 0
KHA3 190429Z 15006KT 21/12 A2963 RMK A01 T02060123  RH  059%=      5-min Rain = 0
KHA3 190430Z 15007KT 21/12 A2963 RMK A01 T02060124  RH  059%=      5-min Rain = 0
KHA3 190431Z 15007KT 21/12 A2963 RMK A01 T02060124  RH  060%=      5-min Rain = 0
KHA3 190432Z 16007KT 21/12 A2964 RMK A01 T02050124  RH  059%=      5-min Rain = 0
KHA3 190433Z 18007KT 21/12 A2964 RMK A01 T02050123  RH  059%=      5-min Rain = 0
KHA3 190434Z 18008KT 21/12 A2964 RMK A01 T02060124  RH  059%=      5-min Rain = 0
KHA3 190435Z 18008KT 21/13 A2964 RMK A01 T02070125  RH  060%=      5-min Rain = 0
KHA3 190436Z 19008KT 21/13 A2964 RMK A01 T02060126  RH  060%=      5-min Rain = 0
KHA3 190437Z 19007KT 21/12 A2964 RMK A01 T02050124  RH  060%=      5-min Rain = 0
KHA3 190438Z 19007KT 21/12 A2964 RMK A01 T02050124  RH  060%=      5-min Rain = 0
KHA3 190439Z 18007KT 21/13 A2964 RMK A01 T02050126  RH  060%=      5-min Rain = 0
KHA3 190440Z 18007KT 20/13 A2964 RMK A01 T02040126  RH  061%=      5-min Rain = 0
KHA3 190441Z 18008KT 21/13 A2964 RMK A01 T02050125  RH  060%=      5-min Rain = 0
KHA3 190442Z 18008KT 21/13 A2964 RMK A01 T02050126  RH  061%=      5-min Rain = 0
KHA3 190443Z 19008KT 21/13 A2964 RMK A01 T02050126  RH  060%=      5-min Rain = 0
KHA3 190444Z 19007KT 21/13 A2964 RMK A01 T02050126  RH  060%=      5-min Rain = 0
KHA3 190445Z 19007KT 21/13 A2964 RMK A01 T02050126  RH  061%=      5-min Rain = 0
KHA3 190446Z 20006KT 20/13 A2964 RMK A01 T02040126  RH  061%=      5-min Rain = 0
KHA3 190447Z 20006KT 20/13 A2964 RMK A01 T02040127  RH  061%=      5-min Rain = 0
KHA3 190448Z 20006KT 20/13 A2964 RMK A01 T02020129  RH  063%=      5-min Rain = 0
KHA3 190449Z 20007KT 20/13 A2964 RMK A01 T02000127  RH  063%=      5-min Rain = 0
KHA3 190450Z 20007KT 20/13 A2964 RMK A01 T02000126  RH  062%=      5-min Rain = 0
KHA3 190451Z 19008KT 20/13 A2964 RMK A01 T02000126  RH  063%=      5-min Rain = 0
KHA3 190452Z 19007KT 20/13 A2964 RMK A01 T02000126  RH  063%=      5-min Rain = 0
KHA3 190453Z 19006KT 20/13 A2964 RMK A01 T02000125  RH  062%=      5-min Rain = 0
KHA3 190454Z 19007KT 20/13 A2964 RMK A01 T02000125  RH  062%=      5-min Rain = 0
KHA3 190455Z 18008KT 20/13 A2964 RMK A01 T02000127  RH  063%=      5-min Rain = 0
KHA3 190456Z 18008KT 20/13 A2964 RMK A01 T02000125  RH  062%=      5-min Rain = 0
KHA3 190457Z 18008KT 20/13 A2964 RMK A01 T02000125  RH  062%=      5-min Rain = 0
KHA3 190458Z 18007KT 20/13 A2964 RMK A01 T01990125  RH  062%=      5-min Rain = 0
KHA3 190459Z 18007KT 20/13 A2964 RMK A01 T01990126  RH  063%=      5-min Rain = 0

Page generated in 0.0726 seconds.